<?xml version="1.0" encoding="UTF-8" standalone="no" ?>
<gpx xmlns="http://www.topografix.com/GPX/1/1" xmlns:xsi="http://www.w3.org/2001/XMLSchema-instance" xsi:schemaLocation="http://www.topografix.com/GPX/1/1 http://www.topografix.com/GPX/1/1/gpx.xsd" version="1.1" creator="VisuGPX - https://www.visugpx.com">
  <metadata>
    <name>La raid dingue</name>
    <desc><![CDATA[La raid dingue est un trail nocturne de 38km et environ 550D  ]]></desc>
  </metadata>
  <trk>
    <name><![CDATA[activity_154391]]></name>
    <trkseg>
      <trkpt lat="48.90226" lon="1.28259">
        <ele>142.60000610352</ele>
        <time>2007-05-09T06:00:11Z</time>
      </trkpt>
      <trkpt lat="48.90212" lon="1.28305">
        <ele>142.60000610352</ele>
        <time>2007-05-09T06:00:20Z</time>
      </trkpt>
      <trkpt lat="48.90197" lon="1.28373">
        <ele>142.60000610352</ele>
        <time>2007-05-09T06:00:32Z</time>
      </trkpt>
      <trkpt lat="48.90191" lon="1.28399">
        <ele>142.39999389648</ele>
        <time>2007-05-09T06:00:37Z</time>
      </trkpt>
      <trkpt lat="48.9017" lon="1.28474">
        <ele>142.80000305176</ele>
        <time>2007-05-09T06:00:51Z</time>
      </trkpt>
      <trkpt lat="48.90162" lon="1.28505">
        <ele>142.80000305176</ele>
        <time>2007-05-09T06:00:57Z</time>
      </trkpt>
      <trkpt lat="48.90155" lon="1.28531">
        <ele>142.39999389648</ele>
        <time>2007-05-09T06:01:02Z</time>
      </trkpt>
      <trkpt lat="48.90141" lon="1.28585">
        <ele>141.60000610352</ele>
        <time>2007-05-09T06:01:12Z</time>
      </trkpt>
      <trkpt lat="48.90128" lon="1.28644">
        <ele>140.39999389648</ele>
        <time>2007-05-09T06:01:23Z</time>
      </trkpt>
      <trkpt lat="48.90119" lon="1.28678">
        <ele>140</ele>
        <time>2007-05-09T06:01:30Z</time>
      </trkpt>
      <trkpt lat="48.90114" lon="1.287">
        <ele>140</ele>
        <time>2007-05-09T06:01:34Z</time>
      </trkpt>
      <trkpt lat="48.90094" lon="1.28755">
        <ele>140</ele>
        <time>2007-05-09T06:01:45Z</time>
      </trkpt>
      <trkpt lat="48.90086" lon="1.28776">
        <ele>139.80000305176</ele>
        <time>2007-05-09T06:01:49Z</time>
      </trkpt>
      <trkpt lat="48.90064" lon="1.28838">
        <ele>138.80000305176</ele>
        <time>2007-05-09T06:02:02Z</time>
      </trkpt>
      <trkpt lat="48.90036" lon="1.28902">
        <ele>137.60000610352</ele>
        <time>2007-05-09T06:02:15Z</time>
      </trkpt>
      <trkpt lat="48.90021" lon="1.28936">
        <ele>137.19999694824</ele>
        <time>2007-05-09T06:02:23Z</time>
      </trkpt>
      <trkpt lat="48.90002" lon="1.28974">
        <ele>137</ele>
        <time>2007-05-09T06:02:31Z</time>
      </trkpt>
      <trkpt lat="48.89974" lon="1.29038">
        <ele>136.39999389648</ele>
        <time>2007-05-09T06:02:44Z</time>
      </trkpt>
      <trkpt lat="48.89958" lon="1.29077">
        <ele>136</ele>
        <time>2007-05-09T06:02:52Z</time>
      </trkpt>
      <trkpt lat="48.89939" lon="1.29132">
        <ele>136.80000305176</ele>
        <time>2007-05-09T06:03:03Z</time>
      </trkpt>
      <trkpt lat="48.89918" lon="1.29191">
        <ele>139.60000610352</ele>
        <time>2007-05-09T06:03:15Z</time>
      </trkpt>
      <trkpt lat="48.89898" lon="1.29229">
        <ele>141.39999389648</ele>
        <time>2007-05-09T06:03:24Z</time>
      </trkpt>
      <trkpt lat="48.89877" lon="1.29266">
        <ele>142.19999694824</ele>
        <time>2007-05-09T06:03:33Z</time>
      </trkpt>
      <trkpt lat="48.89849" lon="1.29264">
        <ele>140.39999389648</ele>
        <time>2007-05-09T06:03:40Z</time>
      </trkpt>
      <trkpt lat="48.89838" lon="1.29268">
        <ele>140</ele>
        <time>2007-05-09T06:03:44Z</time>
      </trkpt>
      <trkpt lat="48.89817" lon="1.29296">
        <ele>139.60000610352</ele>
        <time>2007-05-09T06:03:51Z</time>
      </trkpt>
      <trkpt lat="48.89806" lon="1.29329">
        <ele>139.60000610352</ele>
        <time>2007-05-09T06:03:58Z</time>
      </trkpt>
      <trkpt lat="48.89791" lon="1.29379">
        <ele>139</ele>
        <time>2007-05-09T06:04:08Z</time>
      </trkpt>
      <trkpt lat="48.8979" lon="1.29423">
        <ele>139.39999389648</ele>
        <time>2007-05-09T06:04:16Z</time>
      </trkpt>
      <trkpt lat="48.89789" lon="1.29468">
        <ele>140</ele>
        <time>2007-05-09T06:04:24Z</time>
      </trkpt>
      <trkpt lat="48.8979" lon="1.29501">
        <ele>140.39999389648</ele>
        <time>2007-05-09T06:04:30Z</time>
      </trkpt>
      <trkpt lat="48.89799" lon="1.29536">
        <ele>140.39999389648</ele>
        <time>2007-05-09T06:04:36Z</time>
      </trkpt>
      <trkpt lat="48.898" lon="1.29556">
        <ele>140</ele>
        <time>2007-05-09T06:04:40Z</time>
      </trkpt>
      <trkpt lat="48.898" lon="1.29589">
        <ele>139.60000610352</ele>
        <time>2007-05-09T06:04:46Z</time>
      </trkpt>
      <trkpt lat="48.8979" lon="1.29619">
        <ele>139.39999389648</ele>
        <time>2007-05-09T06:04:52Z</time>
      </trkpt>
      <trkpt lat="48.89768" lon="1.29655">
        <ele>138.39999389648</ele>
        <time>2007-05-09T06:05:01Z</time>
      </trkpt>
      <trkpt lat="48.89762" lon="1.29683">
        <ele>139</ele>
        <time>2007-05-09T06:05:07Z</time>
      </trkpt>
      <trkpt lat="48.89733" lon="1.29702">
        <ele>137.80000305176</ele>
        <time>2007-05-09T06:05:15Z</time>
      </trkpt>
      <trkpt lat="48.89741" lon="1.29715">
        <ele>139.19999694824</ele>
        <time>2007-05-09T06:05:18Z</time>
      </trkpt>
      <trkpt lat="48.89758" lon="1.29726">
        <ele>141</ele>
        <time>2007-05-09T06:05:23Z</time>
      </trkpt>
      <trkpt lat="48.89762" lon="1.29766">
        <ele>143.19999694824</ele>
        <time>2007-05-09T06:05:31Z</time>
      </trkpt>
      <trkpt lat="48.89749" lon="1.29775">
        <ele>142.80000305176</ele>
        <time>2007-05-09T06:05:35Z</time>
      </trkpt>
      <trkpt lat="48.89736" lon="1.29787">
        <ele>142.19999694824</ele>
        <time>2007-05-09T06:05:39Z</time>
      </trkpt>
      <trkpt lat="48.89708" lon="1.29836">
        <ele>142.60000610352</ele>
        <time>2007-05-09T06:05:50Z</time>
      </trkpt>
      <trkpt lat="48.89698" lon="1.29861">
        <ele>143.19999694824</ele>
        <time>2007-05-09T06:05:56Z</time>
      </trkpt>
      <trkpt lat="48.89684" lon="1.29886">
        <ele>144</ele>
        <time>2007-05-09T06:06:01Z</time>
      </trkpt>
      <trkpt lat="48.89666" lon="1.2991">
        <ele>144.60000610352</ele>
        <time>2007-05-09T06:06:08Z</time>
      </trkpt>
      <trkpt lat="48.89646" lon="1.29924">
        <ele>143</ele>
        <time>2007-05-09T06:06:14Z</time>
      </trkpt>
      <trkpt lat="48.89631" lon="1.29879">
        <ele>138.80000305176</ele>
        <time>2007-05-09T06:06:23Z</time>
      </trkpt>
      <trkpt lat="48.89611" lon="1.29888">
        <ele>137</ele>
        <time>2007-05-09T06:06:29Z</time>
      </trkpt>
      <trkpt lat="48.89591" lon="1.29906">
        <ele>135.60000610352</ele>
        <time>2007-05-09T06:06:36Z</time>
      </trkpt>
      <trkpt lat="48.89583" lon="1.29937">
        <ele>137.19999694824</ele>
        <time>2007-05-09T06:06:42Z</time>
      </trkpt>
      <trkpt lat="48.89595" lon="1.29954">
        <ele>140</ele>
        <time>2007-05-09T06:06:47Z</time>
      </trkpt>
      <trkpt lat="48.89599" lon="1.29965">
        <ele>141.39999389648</ele>
        <time>2007-05-09T06:06:50Z</time>
      </trkpt>
      <trkpt lat="48.89592" lon="1.29978">
        <ele>142.19999694824</ele>
        <time>2007-05-09T06:06:53Z</time>
      </trkpt>
      <trkpt lat="48.89573" lon="1.29978">
        <ele>141</ele>
        <time>2007-05-09T06:06:58Z</time>
      </trkpt>
      <trkpt lat="48.89564" lon="1.29978">
        <ele>140.19999694824</ele>
        <time>2007-05-09T06:07:00Z</time>
      </trkpt>
      <trkpt lat="48.89557" lon="1.29968">
        <ele>138.80000305176</ele>
        <time>2007-05-09T06:07:03Z</time>
      </trkpt>
      <trkpt lat="48.89538" lon="1.29975">
        <ele>138.19999694824</ele>
        <time>2007-05-09T06:07:09Z</time>
      </trkpt>
      <trkpt lat="48.89524" lon="1.29978">
        <ele>137.60000610352</ele>
        <time>2007-05-09T06:07:13Z</time>
      </trkpt>
      <trkpt lat="48.8951" lon="1.29984">
        <ele>137.19999694824</ele>
        <time>2007-05-09T06:07:17Z</time>
      </trkpt>
      <trkpt lat="48.89488" lon="1.29992">
        <ele>137</ele>
        <time>2007-05-09T06:07:23Z</time>
      </trkpt>
      <trkpt lat="48.89465" lon="1.29991">
        <ele>136.80000305176</ele>
        <time>2007-05-09T06:07:29Z</time>
      </trkpt>
      <trkpt lat="48.89442" lon="1.29978">
        <ele>135.19999694824</ele>
        <time>2007-05-09T06:07:35Z</time>
      </trkpt>
      <trkpt lat="48.89407" lon="1.29961">
        <ele>132.80000305176</ele>
        <time>2007-05-09T06:07:45Z</time>
      </trkpt>
      <trkpt lat="48.89393" lon="1.29963">
        <ele>132.60000610352</ele>
        <time>2007-05-09T06:07:49Z</time>
      </trkpt>
      <trkpt lat="48.89393" lon="1.29976">
        <ele>133.60000610352</ele>
        <time>2007-05-09T06:07:52Z</time>
      </trkpt>
      <trkpt lat="48.8938" lon="1.30003">
        <ele>135</ele>
        <time>2007-05-09T06:07:58Z</time>
      </trkpt>
      <trkpt lat="48.89363" lon="1.3">
        <ele>133.80000305176</ele>
        <time>2007-05-09T06:08:03Z</time>
      </trkpt>
      <trkpt lat="48.89356" lon="1.29975">
        <ele>131.80000305176</ele>
        <time>2007-05-09T06:08:08Z</time>
      </trkpt>
      <trkpt lat="48.89351" lon="1.29957">
        <ele>130.60000610352</ele>
        <time>2007-05-09T06:08:13Z</time>
      </trkpt>
      <trkpt lat="48.89337" lon="1.2997">
        <ele>130.80000305176</ele>
        <time>2007-05-09T06:08:18Z</time>
      </trkpt>
      <trkpt lat="48.8932" lon="1.29986">
        <ele>130.80000305176</ele>
        <time>2007-05-09T06:08:23Z</time>
      </trkpt>
      <trkpt lat="48.8933" lon="1.29952">
        <ele>129.60000610352</ele>
        <time>2007-05-09T06:08:30Z</time>
      </trkpt>
      <trkpt lat="48.89343" lon="1.29911">
        <ele>128.19999694824</ele>
        <time>2007-05-09T06:08:38Z</time>
      </trkpt>
      <trkpt lat="48.89355" lon="1.29864">
        <ele>128.80000305176</ele>
        <time>2007-05-09T06:08:47Z</time>
      </trkpt>
      <trkpt lat="48.89361" lon="1.29832">
        <ele>129.39999389648</ele>
        <time>2007-05-09T06:08:53Z</time>
      </trkpt>
      <trkpt lat="48.89367" lon="1.29779">
        <ele>131.19999694824</ele>
        <time>2007-05-09T06:09:02Z</time>
      </trkpt>
      <trkpt lat="48.89368" lon="1.2972">
        <ele>132.80000305176</ele>
        <time>2007-05-09T06:09:12Z</time>
      </trkpt>
      <trkpt lat="48.89365" lon="1.297">
        <ele>133.19999694824</ele>
        <time>2007-05-09T06:09:16Z</time>
      </trkpt>
      <trkpt lat="48.89367" lon="1.29663">
        <ele>134</ele>
        <time>2007-05-09T06:09:23Z</time>
      </trkpt>
      <trkpt lat="48.89364" lon="1.2962">
        <ele>134.80000305176</ele>
        <time>2007-05-09T06:09:30Z</time>
      </trkpt>
      <trkpt lat="48.89359" lon="1.29579">
        <ele>135.39999389648</ele>
        <time>2007-05-09T06:09:38Z</time>
      </trkpt>
      <trkpt lat="48.89347" lon="1.29555">
        <ele>135.19999694824</ele>
        <time>2007-05-09T06:09:43Z</time>
      </trkpt>
      <trkpt lat="48.89338" lon="1.29532">
        <ele>135</ele>
        <time>2007-05-09T06:09:48Z</time>
      </trkpt>
      <trkpt lat="48.89321" lon="1.29461">
        <ele>135.19999694824</ele>
        <time>2007-05-09T06:10:01Z</time>
      </trkpt>
      <trkpt lat="48.89303" lon="1.29394">
        <ele>135.60000610352</ele>
        <time>2007-05-09T06:10:14Z</time>
      </trkpt>
      <trkpt lat="48.89297" lon="1.29363">
        <ele>135.80000305176</ele>
        <time>2007-05-09T06:10:19Z</time>
      </trkpt>
      <trkpt lat="48.89292" lon="1.29345">
        <ele>136</ele>
        <time>2007-05-09T06:10:23Z</time>
      </trkpt>
      <trkpt lat="48.89278" lon="1.29283">
        <ele>136.39999389648</ele>
        <time>2007-05-09T06:10:34Z</time>
      </trkpt>
      <trkpt lat="48.89257" lon="1.29281">
        <ele>136.19999694824</ele>
        <time>2007-05-09T06:10:40Z</time>
      </trkpt>
      <trkpt lat="48.89239" lon="1.29295">
        <ele>136.60000610352</ele>
        <time>2007-05-09T06:10:46Z</time>
      </trkpt>
      <trkpt lat="48.89203" lon="1.29331">
        <ele>137.80000305176</ele>
        <time>2007-05-09T06:10:57Z</time>
      </trkpt>
      <trkpt lat="48.89167" lon="1.29368">
        <ele>138.60000610352</ele>
        <time>2007-05-09T06:11:09Z</time>
      </trkpt>
      <trkpt lat="48.89145" lon="1.29388">
        <ele>138.60000610352</ele>
        <time>2007-05-09T06:11:16Z</time>
      </trkpt>
      <trkpt lat="48.89131" lon="1.29399">
        <ele>138.60000610352</ele>
        <time>2007-05-09T06:11:20Z</time>
      </trkpt>
      <trkpt lat="48.89106" lon="1.29424">
        <ele>138.80000305176</ele>
        <time>2007-05-09T06:11:28Z</time>
      </trkpt>
      <trkpt lat="48.89079" lon="1.29451">
        <ele>139</ele>
        <time>2007-05-09T06:11:37Z</time>
      </trkpt>
      <trkpt lat="48.89062" lon="1.29466">
        <ele>139.19999694824</ele>
        <time>2007-05-09T06:11:42Z</time>
      </trkpt>
      <trkpt lat="48.89007" lon="1.29489">
        <ele>140</ele>
        <time>2007-05-09T06:11:57Z</time>
      </trkpt>
      <trkpt lat="48.88989" lon="1.29491">
        <ele>139.80000305176</ele>
        <time>2007-05-09T06:12:02Z</time>
      </trkpt>
      <trkpt lat="48.8895" lon="1.29489">
        <ele>138.80000305176</ele>
        <time>2007-05-09T06:12:12Z</time>
      </trkpt>
      <trkpt lat="48.88923" lon="1.29485">
        <ele>138.39999389648</ele>
        <time>2007-05-09T06:12:19Z</time>
      </trkpt>
      <trkpt lat="48.88907" lon="1.29482">
        <ele>138.19999694824</ele>
        <time>2007-05-09T06:12:24Z</time>
      </trkpt>
      <trkpt lat="48.88871" lon="1.29474">
        <ele>138.19999694824</ele>
        <time>2007-05-09T06:12:33Z</time>
      </trkpt>
      <trkpt lat="48.88866" lon="1.29456">
        <ele>138.19999694824</ele>
        <time>2007-05-09T06:12:37Z</time>
      </trkpt>
      <trkpt lat="48.88865" lon="1.29429">
        <ele>138.39999389648</ele>
        <time>2007-05-09T06:12:42Z</time>
      </trkpt>
      <trkpt lat="48.88868" lon="1.29402">
        <ele>138.60000610352</ele>
        <time>2007-05-09T06:12:47Z</time>
      </trkpt>
      <trkpt lat="48.88873" lon="1.29365">
        <ele>139</ele>
        <time>2007-05-09T06:12:53Z</time>
      </trkpt>
      <trkpt lat="48.88881" lon="1.29288">
        <ele>140</ele>
        <time>2007-05-09T06:13:07Z</time>
      </trkpt>
      <trkpt lat="48.88885" lon="1.29205">
        <ele>140.80000305176</ele>
        <time>2007-05-09T06:13:22Z</time>
      </trkpt>
      <trkpt lat="48.88874" lon="1.29145">
        <ele>141.19999694824</ele>
        <time>2007-05-09T06:13:33Z</time>
      </trkpt>
      <trkpt lat="48.88868" lon="1.29113">
        <ele>141.39999389648</ele>
        <time>2007-05-09T06:13:39Z</time>
      </trkpt>
      <trkpt lat="48.88863" lon="1.29081">
        <ele>141.60000610352</ele>
        <time>2007-05-09T06:13:44Z</time>
      </trkpt>
      <trkpt lat="48.88848" lon="1.29032">
        <ele>141.39999389648</ele>
        <time>2007-05-09T06:13:54Z</time>
      </trkpt>
      <trkpt lat="48.8883" lon="1.28979">
        <ele>141</ele>
        <time>2007-05-09T06:14:04Z</time>
      </trkpt>
      <trkpt lat="48.88817" lon="1.28942">
        <ele>141.19999694824</ele>
        <time>2007-05-09T06:14:12Z</time>
      </trkpt>
      <trkpt lat="48.88799" lon="1.28891">
        <ele>141.39999389648</ele>
        <time>2007-05-09T06:14:22Z</time>
      </trkpt>
      <trkpt lat="48.88793" lon="1.28874">
        <ele>141.39999389648</ele>
        <time>2007-05-09T06:14:25Z</time>
      </trkpt>
      <trkpt lat="48.88783" lon="1.28839">
        <ele>141.60000610352</ele>
        <time>2007-05-09T06:14:32Z</time>
      </trkpt>
      <trkpt lat="48.88767" lon="1.28773">
        <ele>141.19999694824</ele>
        <time>2007-05-09T06:14:44Z</time>
      </trkpt>
      <trkpt lat="48.88757" lon="1.28715">
        <ele>141</ele>
        <time>2007-05-09T06:14:54Z</time>
      </trkpt>
      <trkpt lat="48.88753" lon="1.28684">
        <ele>141</ele>
        <time>2007-05-09T06:15:00Z</time>
      </trkpt>
      <trkpt lat="48.88748" lon="1.28613">
        <ele>141</ele>
        <time>2007-05-09T06:15:12Z</time>
      </trkpt>
      <trkpt lat="48.88734" lon="1.28593">
        <ele>141</ele>
        <time>2007-05-09T06:15:19Z</time>
      </trkpt>
      <trkpt lat="48.88682" lon="1.2862">
        <ele>141</ele>
        <time>2007-05-09T06:15:33Z</time>
      </trkpt>
      <trkpt lat="48.88657" lon="1.28631">
        <ele>141</ele>
        <time>2007-05-09T06:15:40Z</time>
      </trkpt>
      <trkpt lat="48.88629" lon="1.28644">
        <ele>140.60000610352</ele>
        <time>2007-05-09T06:15:48Z</time>
      </trkpt>
      <trkpt lat="48.88594" lon="1.28661">
        <ele>140.19999694824</ele>
        <time>2007-05-09T06:15:58Z</time>
      </trkpt>
      <trkpt lat="48.88559" lon="1.2867">
        <ele>140.80000305176</ele>
        <time>2007-05-09T06:16:07Z</time>
      </trkpt>
      <trkpt lat="48.8853" lon="1.28663">
        <ele>142</ele>
        <time>2007-05-09T06:16:15Z</time>
      </trkpt>
      <trkpt lat="48.88485" lon="1.2867">
        <ele>142.80000305176</ele>
        <time>2007-05-09T06:16:28Z</time>
      </trkpt>
      <trkpt lat="48.88472" lon="1.28688">
        <ele>142.39999389648</ele>
        <time>2007-05-09T06:16:33Z</time>
      </trkpt>
      <trkpt lat="48.88458" lon="1.28704">
        <ele>141.80000305176</ele>
        <time>2007-05-09T06:16:37Z</time>
      </trkpt>
      <trkpt lat="48.88444" lon="1.28718">
        <ele>141.60000610352</ele>
        <time>2007-05-09T06:16:42Z</time>
      </trkpt>
      <trkpt lat="48.88429" lon="1.28736">
        <ele>141.19999694824</ele>
        <time>2007-05-09T06:16:47Z</time>
      </trkpt>
      <trkpt lat="48.88408" lon="1.28756">
        <ele>141.19999694824</ele>
        <time>2007-05-09T06:16:54Z</time>
      </trkpt>
      <trkpt lat="48.88398" lon="1.28771">
        <ele>141.39999389648</ele>
        <time>2007-05-09T06:16:57Z</time>
      </trkpt>
      <trkpt lat="48.88383" lon="1.28803">
        <ele>141.60000610352</ele>
        <time>2007-05-09T06:17:04Z</time>
      </trkpt>
      <trkpt lat="48.88368" lon="1.28835">
        <ele>141.60000610352</ele>
        <time>2007-05-09T06:17:11Z</time>
      </trkpt>
      <trkpt lat="48.88348" lon="1.28876">
        <ele>141.19999694824</ele>
        <time>2007-05-09T06:17:20Z</time>
      </trkpt>
      <trkpt lat="48.88332" lon="1.28925">
        <ele>141</ele>
        <time>2007-05-09T06:17:30Z</time>
      </trkpt>
      <trkpt lat="48.8831" lon="1.28976">
        <ele>141</ele>
        <time>2007-05-09T06:17:41Z</time>
      </trkpt>
      <trkpt lat="48.88298" lon="1.29002">
        <ele>141.19999694824</ele>
        <time>2007-05-09T06:17:46Z</time>
      </trkpt>
      <trkpt lat="48.88278" lon="1.29031">
        <ele>141.60000610352</ele>
        <time>2007-05-09T06:17:54Z</time>
      </trkpt>
      <trkpt lat="48.88254" lon="1.28985">
        <ele>142.80000305176</ele>
        <time>2007-05-09T06:18:05Z</time>
      </trkpt>
      <trkpt lat="48.8823" lon="1.28923">
        <ele>142.39999389648</ele>
        <time>2007-05-09T06:18:17Z</time>
      </trkpt>
      <trkpt lat="48.88217" lon="1.28862">
        <ele>142.19999694824</ele>
        <time>2007-05-09T06:18:29Z</time>
      </trkpt>
      <trkpt lat="48.88205" lon="1.28831">
        <ele>142</ele>
        <time>2007-05-09T06:18:35Z</time>
      </trkpt>
      <trkpt lat="48.88179" lon="1.28822">
        <ele>142</ele>
        <time>2007-05-09T06:18:42Z</time>
      </trkpt>
      <trkpt lat="48.88156" lon="1.28836">
        <ele>142</ele>
        <time>2007-05-09T06:18:49Z</time>
      </trkpt>
      <trkpt lat="48.88129" lon="1.28844">
        <ele>141.60000610352</ele>
        <time>2007-05-09T06:18:56Z</time>
      </trkpt>
      <trkpt lat="48.88093" lon="1.28854">
        <ele>141.39999389648</ele>
        <time>2007-05-09T06:19:06Z</time>
      </trkpt>
      <trkpt lat="48.88062" lon="1.28873">
        <ele>141.19999694824</ele>
        <time>2007-05-09T06:19:15Z</time>
      </trkpt>
      <trkpt lat="48.88039" lon="1.28897">
        <ele>141</ele>
        <time>2007-05-09T06:19:22Z</time>
      </trkpt>
      <trkpt lat="48.8803" lon="1.28912">
        <ele>140.80000305176</ele>
        <time>2007-05-09T06:19:26Z</time>
      </trkpt>
      <trkpt lat="48.88018" lon="1.28946">
        <ele>140.60000610352</ele>
        <time>2007-05-09T06:19:33Z</time>
      </trkpt>
      <trkpt lat="48.87995" lon="1.28987">
        <ele>140</ele>
        <time>2007-05-09T06:19:42Z</time>
      </trkpt>
      <trkpt lat="48.87978" lon="1.29013">
        <ele>140.39999389648</ele>
        <time>2007-05-09T06:19:49Z</time>
      </trkpt>
      <trkpt lat="48.87961" lon="1.28995">
        <ele>140</ele>
        <time>2007-05-09T06:19:55Z</time>
      </trkpt>
      <trkpt lat="48.87928" lon="1.28966">
        <ele>140</ele>
        <time>2007-05-09T06:20:06Z</time>
      </trkpt>
      <trkpt lat="48.87919" lon="1.29">
        <ele>140</ele>
        <time>2007-05-09T06:20:12Z</time>
      </trkpt>
      <trkpt lat="48.87912" lon="1.29034">
        <ele>141</ele>
        <time>2007-05-09T06:20:19Z</time>
      </trkpt>
      <trkpt lat="48.87901" lon="1.29085">
        <ele>142.60000610352</ele>
        <time>2007-05-09T06:20:28Z</time>
      </trkpt>
      <trkpt lat="48.87897" lon="1.29103">
        <ele>142.60000610352</ele>
        <time>2007-05-09T06:20:31Z</time>
      </trkpt>
      <trkpt lat="48.87877" lon="1.29119">
        <ele>143.39999389648</ele>
        <time>2007-05-09T06:20:38Z</time>
      </trkpt>
      <trkpt lat="48.87838" lon="1.29094">
        <ele>145</ele>
        <time>2007-05-09T06:20:50Z</time>
      </trkpt>
      <trkpt lat="48.87804" lon="1.2907">
        <ele>143.19999694824</ele>
        <time>2007-05-09T06:21:00Z</time>
      </trkpt>
      <trkpt lat="48.87751" lon="1.29053">
        <ele>138.80000305176</ele>
        <time>2007-05-09T06:21:14Z</time>
      </trkpt>
      <trkpt lat="48.8771" lon="1.2903">
        <ele>132.80000305176</ele>
        <time>2007-05-09T06:21:26Z</time>
      </trkpt>
      <trkpt lat="48.87673" lon="1.2901">
        <ele>127</ele>
        <time>2007-05-09T06:21:36Z</time>
      </trkpt>
      <trkpt lat="48.87651" lon="1.29024">
        <ele>127.19999694824</ele>
        <time>2007-05-09T06:21:43Z</time>
      </trkpt>
      <trkpt lat="48.87624" lon="1.29045">
        <ele>128.39999389648</ele>
        <time>2007-05-09T06:21:51Z</time>
      </trkpt>
      <trkpt lat="48.87606" lon="1.29063">
        <ele>129.39999389648</ele>
        <time>2007-05-09T06:21:56Z</time>
      </trkpt>
      <trkpt lat="48.8755" lon="1.291">
        <ele>128.19999694824</ele>
        <time>2007-05-09T06:22:13Z</time>
      </trkpt>
      <trkpt lat="48.87536" lon="1.2911">
        <ele>128</ele>
        <time>2007-05-09T06:22:17Z</time>
      </trkpt>
      <trkpt lat="48.87491" lon="1.29139">
        <ele>127</ele>
        <time>2007-05-09T06:22:30Z</time>
      </trkpt>
      <trkpt lat="48.87477" lon="1.29149">
        <ele>126.80000305176</ele>
        <time>2007-05-09T06:22:34Z</time>
      </trkpt>
      <trkpt lat="48.87445" lon="1.29189">
        <ele>126.40000152588</ele>
        <time>2007-05-09T06:22:45Z</time>
      </trkpt>
      <trkpt lat="48.87434" lon="1.29207">
        <ele>125.80000305176</ele>
        <time>2007-05-09T06:22:50Z</time>
      </trkpt>
      <trkpt lat="48.87423" lon="1.29226">
        <ele>125</ele>
        <time>2007-05-09T06:22:54Z</time>
      </trkpt>
      <trkpt lat="48.87428" lon="1.29256">
        <ele>126.80000305176</ele>
        <time>2007-05-09T06:22:59Z</time>
      </trkpt>
      <trkpt lat="48.87443" lon="1.29259">
        <ele>129.39999389648</ele>
        <time>2007-05-09T06:23:04Z</time>
      </trkpt>
      <trkpt lat="48.87459" lon="1.29257">
        <ele>132</ele>
        <time>2007-05-09T06:23:08Z</time>
      </trkpt>
      <trkpt lat="48.87493" lon="1.29259">
        <ele>137.39999389648</ele>
        <time>2007-05-09T06:23:17Z</time>
      </trkpt>
      <trkpt lat="48.8751" lon="1.29263">
        <ele>138.80000305176</ele>
        <time>2007-05-09T06:23:22Z</time>
      </trkpt>
      <trkpt lat="48.87556" lon="1.29292">
        <ele>139.60000610352</ele>
        <time>2007-05-09T06:23:35Z</time>
      </trkpt>
      <trkpt lat="48.87587" lon="1.2931">
        <ele>140.19999694824</ele>
        <time>2007-05-09T06:23:44Z</time>
      </trkpt>
      <trkpt lat="48.87629" lon="1.2934">
        <ele>140</ele>
        <time>2007-05-09T06:23:57Z</time>
      </trkpt>
      <trkpt lat="48.87653" lon="1.29358">
        <ele>139.80000305176</ele>
        <time>2007-05-09T06:24:04Z</time>
      </trkpt>
      <trkpt lat="48.87672" lon="1.29372">
        <ele>139.60000610352</ele>
        <time>2007-05-09T06:24:10Z</time>
      </trkpt>
      <trkpt lat="48.877" lon="1.29388">
        <ele>139.39999389648</ele>
        <time>2007-05-09T06:24:18Z</time>
      </trkpt>
      <trkpt lat="48.87734" lon="1.29401">
        <ele>139.19999694824</ele>
        <time>2007-05-09T06:24:28Z</time>
      </trkpt>
      <trkpt lat="48.87757" lon="1.29418">
        <ele>139</ele>
        <time>2007-05-09T06:24:35Z</time>
      </trkpt>
      <trkpt lat="48.87774" lon="1.29426">
        <ele>139</ele>
        <time>2007-05-09T06:24:39Z</time>
      </trkpt>
      <trkpt lat="48.87818" lon="1.29446">
        <ele>139</ele>
        <time>2007-05-09T06:24:52Z</time>
      </trkpt>
      <trkpt lat="48.87813" lon="1.2948">
        <ele>138.80000305176</ele>
        <time>2007-05-09T06:24:58Z</time>
      </trkpt>
      <trkpt lat="48.87799" lon="1.29539">
        <ele>138.60000610352</ele>
        <time>2007-05-09T06:25:09Z</time>
      </trkpt>
      <trkpt lat="48.87784" lon="1.296">
        <ele>139</ele>
        <time>2007-05-09T06:25:21Z</time>
      </trkpt>
      <trkpt lat="48.87764" lon="1.29698">
        <ele>141.60000610352</ele>
        <time>2007-05-09T06:25:39Z</time>
      </trkpt>
      <trkpt lat="48.87756" lon="1.29729">
        <ele>142.39999389648</ele>
        <time>2007-05-09T06:25:45Z</time>
      </trkpt>
      <trkpt lat="48.87742" lon="1.29786">
        <ele>143.60000610352</ele>
        <time>2007-05-09T06:25:55Z</time>
      </trkpt>
      <trkpt lat="48.87718" lon="1.29875">
        <ele>141.60000610352</ele>
        <time>2007-05-09T06:26:12Z</time>
      </trkpt>
      <trkpt lat="48.8771" lon="1.29915">
        <ele>139.60000610352</ele>
        <time>2007-05-09T06:26:20Z</time>
      </trkpt>
      <trkpt lat="48.87704" lon="1.29945">
        <ele>137</ele>
        <time>2007-05-09T06:26:25Z</time>
      </trkpt>
      <trkpt lat="48.87701" lon="1.29966">
        <ele>135</ele>
        <time>2007-05-09T06:26:29Z</time>
      </trkpt>
      <trkpt lat="48.87694" lon="1.29995">
        <ele>132</ele>
        <time>2007-05-09T06:26:35Z</time>
      </trkpt>
      <trkpt lat="48.87686" lon="1.30033">
        <ele>129</ele>
        <time>2007-05-09T06:26:42Z</time>
      </trkpt>
      <trkpt lat="48.87683" lon="1.30046">
        <ele>127.80000305176</ele>
        <time>2007-05-09T06:26:44Z</time>
      </trkpt>
      <trkpt lat="48.87675" lon="1.30101">
        <ele>124.19999694824</ele>
        <time>2007-05-09T06:26:54Z</time>
      </trkpt>
      <trkpt lat="48.8767" lon="1.30123">
        <ele>122.59999847412</ele>
        <time>2007-05-09T06:26:58Z</time>
      </trkpt>
      <trkpt lat="48.87658" lon="1.30165">
        <ele>121.59999847412</ele>
        <time>2007-05-09T06:27:06Z</time>
      </trkpt>
      <trkpt lat="48.87639" lon="1.30228">
        <ele>125.40000152588</ele>
        <time>2007-05-09T06:27:18Z</time>
      </trkpt>
      <trkpt lat="48.87638" lon="1.30244">
        <ele>126.19999694824</ele>
        <time>2007-05-09T06:27:21Z</time>
      </trkpt>
      <trkpt lat="48.87632" lon="1.30265">
        <ele>127.40000152588</ele>
        <time>2007-05-09T06:27:26Z</time>
      </trkpt>
      <trkpt lat="48.87628" lon="1.3029">
        <ele>128.39999389648</ele>
        <time>2007-05-09T06:27:30Z</time>
      </trkpt>
      <trkpt lat="48.87622" lon="1.3032">
        <ele>129.60000610352</ele>
        <time>2007-05-09T06:27:36Z</time>
      </trkpt>
      <trkpt lat="48.87611" lon="1.30357">
        <ele>132</ele>
        <time>2007-05-09T06:27:43Z</time>
      </trkpt>
      <trkpt lat="48.87609" lon="1.30373">
        <ele>132.80000305176</ele>
        <time>2007-05-09T06:27:46Z</time>
      </trkpt>
      <trkpt lat="48.87607" lon="1.30388">
        <ele>133.60000610352</ele>
        <time>2007-05-09T06:27:49Z</time>
      </trkpt>
      <trkpt lat="48.87604" lon="1.30398">
        <ele>134.39999389648</ele>
        <time>2007-05-09T06:27:51Z</time>
      </trkpt>
      <trkpt lat="48.87599" lon="1.30415">
        <ele>135.80000305176</ele>
        <time>2007-05-09T06:27:54Z</time>
      </trkpt>
      <trkpt lat="48.87595" lon="1.30431">
        <ele>137</ele>
        <time>2007-05-09T06:27:57Z</time>
      </trkpt>
      <trkpt lat="48.87591" lon="1.3046">
        <ele>139</ele>
        <time>2007-05-09T06:28:02Z</time>
      </trkpt>
      <trkpt lat="48.87584" lon="1.30487">
        <ele>141.19999694824</ele>
        <time>2007-05-09T06:28:08Z</time>
      </trkpt>
      <trkpt lat="48.8758" lon="1.30509">
        <ele>142.19999694824</ele>
        <time>2007-05-09T06:28:12Z</time>
      </trkpt>
      <trkpt lat="48.87573" lon="1.30543">
        <ele>142.80000305176</ele>
        <time>2007-05-09T06:28:18Z</time>
      </trkpt>
      <trkpt lat="48.87566" lon="1.30568">
        <ele>143.19999694824</ele>
        <time>2007-05-09T06:28:23Z</time>
      </trkpt>
      <trkpt lat="48.87561" lon="1.3059">
        <ele>143.80000305176</ele>
        <time>2007-05-09T06:28:27Z</time>
      </trkpt>
      <trkpt lat="48.87547" lon="1.30649">
        <ele>145.60000610352</ele>
        <time>2007-05-09T06:28:38Z</time>
      </trkpt>
      <trkpt lat="48.87532" lon="1.30714">
        <ele>146.80000305176</ele>
        <time>2007-05-09T06:28:50Z</time>
      </trkpt>
      <trkpt lat="48.87522" lon="1.30759">
        <ele>147.19999694824</ele>
        <time>2007-05-09T06:28:59Z</time>
      </trkpt>
      <trkpt lat="48.8752" lon="1.30786">
        <ele>147.39999389648</ele>
        <time>2007-05-09T06:29:04Z</time>
      </trkpt>
      <trkpt lat="48.87512" lon="1.30829">
        <ele>147.60000610352</ele>
        <time>2007-05-09T06:29:11Z</time>
      </trkpt>
      <trkpt lat="48.87507" lon="1.30851">
        <ele>147.60000610352</ele>
        <time>2007-05-09T06:29:16Z</time>
      </trkpt>
      <trkpt lat="48.87505" lon="1.30868">
        <ele>147.39999389648</ele>
        <time>2007-05-09T06:29:19Z</time>
      </trkpt>
      <trkpt lat="48.87494" lon="1.30909">
        <ele>146.80000305176</ele>
        <time>2007-05-09T06:29:26Z</time>
      </trkpt>
      <trkpt lat="48.87481" lon="1.30961">
        <ele>145.39999389648</ele>
        <time>2007-05-09T06:29:36Z</time>
      </trkpt>
      <trkpt lat="48.87497" lon="1.31002">
        <ele>145.80000305176</ele>
        <time>2007-05-09T06:29:45Z</time>
      </trkpt>
      <trkpt lat="48.87519" lon="1.31035">
        <ele>145.19999694824</ele>
        <time>2007-05-09T06:29:54Z</time>
      </trkpt>
      <trkpt lat="48.87539" lon="1.31056">
        <ele>144.80000305176</ele>
        <time>2007-05-09T06:30:00Z</time>
      </trkpt>
      <trkpt lat="48.87553" lon="1.31069">
        <ele>144.39999389648</ele>
        <time>2007-05-09T06:30:05Z</time>
      </trkpt>
      <trkpt lat="48.87581" lon="1.31089">
        <ele>144</ele>
        <time>2007-05-09T06:30:13Z</time>
      </trkpt>
      <trkpt lat="48.87618" lon="1.31124">
        <ele>142.39999389648</ele>
        <time>2007-05-09T06:30:25Z</time>
      </trkpt>
      <trkpt lat="48.87642" lon="1.3115">
        <ele>141.60000610352</ele>
        <time>2007-05-09T06:30:33Z</time>
      </trkpt>
      <trkpt lat="48.87657" lon="1.31166">
        <ele>141.39999389648</ele>
        <time>2007-05-09T06:30:38Z</time>
      </trkpt>
      <trkpt lat="48.87674" lon="1.31183">
        <ele>139.19999694824</ele>
        <time>2007-05-09T06:30:43Z</time>
      </trkpt>
      <trkpt lat="48.87723" lon="1.31229">
        <ele>126.80000305176</ele>
        <time>2007-05-09T06:30:59Z</time>
      </trkpt>
      <trkpt lat="48.87762" lon="1.31246">
        <ele>117.80000305176</ele>
        <time>2007-05-09T06:31:10Z</time>
      </trkpt>
      <trkpt lat="48.8777" lon="1.31253">
        <ele>116.40000152588</ele>
        <time>2007-05-09T06:31:13Z</time>
      </trkpt>
      <trkpt lat="48.87779" lon="1.31264">
        <ele>114.59999847412</ele>
        <time>2007-05-09T06:31:17Z</time>
      </trkpt>
      <trkpt lat="48.87776" lon="1.31268">
        <ele>114.80000305176</ele>
        <time>2007-05-09T06:31:18Z</time>
      </trkpt>
      <trkpt lat="48.87775" lon="1.31267">
        <ele>115</ele>
        <time>2007-05-09T06:31:18Z</time>
      </trkpt>
      <trkpt lat="48.87775" lon="1.31269">
        <ele>114.80000305176</ele>
        <time>2007-05-09T06:31:19Z</time>
      </trkpt>
      <trkpt lat="48.8776" lon="1.31297">
        <ele>114.59999847412</ele>
        <time>2007-05-09T06:31:25Z</time>
      </trkpt>
      <trkpt lat="48.87748" lon="1.31317">
        <ele>114.80000305176</ele>
        <time>2007-05-09T06:31:30Z</time>
      </trkpt>
      <trkpt lat="48.87723" lon="1.31356">
        <ele>118.80000305176</ele>
        <time>2007-05-09T06:31:40Z</time>
      </trkpt>
      <trkpt lat="48.87709" lon="1.31379">
        <ele>121</ele>
        <time>2007-05-09T06:31:45Z</time>
      </trkpt>
      <trkpt lat="48.87695" lon="1.31416">
        <ele>121.80000305176</ele>
        <time>2007-05-09T06:31:53Z</time>
      </trkpt>
      <trkpt lat="48.87697" lon="1.3146">
        <ele>118.40000152588</ele>
        <time>2007-05-09T06:32:00Z</time>
      </trkpt>
      <trkpt lat="48.87706" lon="1.31483">
        <ele>115</ele>
        <time>2007-05-09T06:32:05Z</time>
      </trkpt>
      <trkpt lat="48.87707" lon="1.31505">
        <ele>113.40000152588</ele>
        <time>2007-05-09T06:32:11Z</time>
      </trkpt>
      <trkpt lat="48.87696" lon="1.31516">
        <ele>115</ele>
        <time>2007-05-09T06:32:14Z</time>
      </trkpt>
      <trkpt lat="48.8768" lon="1.31527">
        <ele>117.40000152588</ele>
        <time>2007-05-09T06:32:19Z</time>
      </trkpt>
      <trkpt lat="48.87658" lon="1.31551">
        <ele>120.19999694824</ele>
        <time>2007-05-09T06:32:26Z</time>
      </trkpt>
      <trkpt lat="48.87645" lon="1.31585">
        <ele>121.19999694824</ele>
        <time>2007-05-09T06:32:33Z</time>
      </trkpt>
      <trkpt lat="48.87641" lon="1.31622">
        <ele>121.19999694824</ele>
        <time>2007-05-09T06:32:40Z</time>
      </trkpt>
      <trkpt lat="48.87652" lon="1.31677">
        <ele>118.19999694824</ele>
        <time>2007-05-09T06:32:50Z</time>
      </trkpt>
      <trkpt lat="48.87649" lon="1.31749">
        <ele>121.19999694824</ele>
        <time>2007-05-09T06:33:03Z</time>
      </trkpt>
      <trkpt lat="48.87649" lon="1.31759">
        <ele>120.80000305176</ele>
        <time>2007-05-09T06:33:05Z</time>
      </trkpt>
      <trkpt lat="48.87645" lon="1.31768">
        <ele>120.80000305176</ele>
        <time>2007-05-09T06:33:07Z</time>
      </trkpt>
      <trkpt lat="48.8764" lon="1.3177">
        <ele>121.40000152588</ele>
        <time>2007-05-09T06:33:08Z</time>
      </trkpt>
      <trkpt lat="48.87643" lon="1.31785">
        <ele>120.59999847412</ele>
        <time>2007-05-09T06:33:11Z</time>
      </trkpt>
      <trkpt lat="48.87642" lon="1.31796">
        <ele>120.19999694824</ele>
        <time>2007-05-09T06:33:13Z</time>
      </trkpt>
      <trkpt lat="48.87636" lon="1.31802">
        <ele>120.80000305176</ele>
        <time>2007-05-09T06:33:15Z</time>
      </trkpt>
      <trkpt lat="48.87631" lon="1.31803">
        <ele>121.59999847412</ele>
        <time>2007-05-09T06:33:17Z</time>
      </trkpt>
      <trkpt lat="48.87624" lon="1.31814">
        <ele>122.19999694824</ele>
        <time>2007-05-09T06:33:20Z</time>
      </trkpt>
      <trkpt lat="48.87607" lon="1.31819">
        <ele>124.59999847412</ele>
        <time>2007-05-09T06:33:24Z</time>
      </trkpt>
      <trkpt lat="48.87591" lon="1.31816">
        <ele>127</ele>
        <time>2007-05-09T06:33:29Z</time>
      </trkpt>
      <trkpt lat="48.87579" lon="1.31807">
        <ele>128.80000305176</ele>
        <time>2007-05-09T06:33:32Z</time>
      </trkpt>
      <trkpt lat="48.87545" lon="1.31802">
        <ele>132.19999694824</ele>
        <time>2007-05-09T06:33:41Z</time>
      </trkpt>
      <trkpt lat="48.8752" lon="1.31799">
        <ele>134.80000305176</ele>
        <time>2007-05-09T06:33:48Z</time>
      </trkpt>
      <trkpt lat="48.87491" lon="1.31786">
        <ele>136.39999389648</ele>
        <time>2007-05-09T06:33:56Z</time>
      </trkpt>
      <trkpt lat="48.87463" lon="1.31776">
        <ele>136.60000610352</ele>
        <time>2007-05-09T06:34:04Z</time>
      </trkpt>
      <trkpt lat="48.87443" lon="1.31772">
        <ele>136.80000305176</ele>
        <time>2007-05-09T06:34:09Z</time>
      </trkpt>
      <trkpt lat="48.87418" lon="1.31766">
        <ele>137.19999694824</ele>
        <time>2007-05-09T06:34:16Z</time>
      </trkpt>
      <trkpt lat="48.8738" lon="1.31762">
        <ele>138.80000305176</ele>
        <time>2007-05-09T06:34:26Z</time>
      </trkpt>
      <trkpt lat="48.87367" lon="1.31756">
        <ele>139.39999389648</ele>
        <time>2007-05-09T06:34:30Z</time>
      </trkpt>
      <trkpt lat="48.8734" lon="1.31747">
        <ele>140.60000610352</ele>
        <time>2007-05-09T06:34:37Z</time>
      </trkpt>
      <trkpt lat="48.87315" lon="1.31749">
        <ele>141.39999389648</ele>
        <time>2007-05-09T06:34:45Z</time>
      </trkpt>
      <trkpt lat="48.87306" lon="1.31766">
        <ele>141.60000610352</ele>
        <time>2007-05-09T06:34:48Z</time>
      </trkpt>
      <trkpt lat="48.87298" lon="1.31789">
        <ele>141.60000610352</ele>
        <time>2007-05-09T06:34:53Z</time>
      </trkpt>
      <trkpt lat="48.87287" lon="1.31845">
        <ele>141.39999389648</ele>
        <time>2007-05-09T06:35:03Z</time>
      </trkpt>
      <trkpt lat="48.87278" lon="1.31884">
        <ele>141.19999694824</ele>
        <time>2007-05-09T06:35:11Z</time>
      </trkpt>
      <trkpt lat="48.87269" lon="1.31928">
        <ele>141.19999694824</ele>
        <time>2007-05-09T06:35:19Z</time>
      </trkpt>
      <trkpt lat="48.87265" lon="1.31945">
        <ele>141.39999389648</ele>
        <time>2007-05-09T06:35:22Z</time>
      </trkpt>
      <trkpt lat="48.87251" lon="1.32003">
        <ele>142</ele>
        <time>2007-05-09T06:35:33Z</time>
      </trkpt>
      <trkpt lat="48.87237" lon="1.32071">
        <ele>143.39999389648</ele>
        <time>2007-05-09T06:35:45Z</time>
      </trkpt>
      <trkpt lat="48.8723" lon="1.321">
        <ele>143.19999694824</ele>
        <time>2007-05-09T06:35:51Z</time>
      </trkpt>
      <trkpt lat="48.8722" lon="1.32134">
        <ele>142.39999389648</ele>
        <time>2007-05-09T06:35:57Z</time>
      </trkpt>
      <trkpt lat="48.87204" lon="1.32197">
        <ele>140.80000305176</ele>
        <time>2007-05-09T06:36:09Z</time>
      </trkpt>
      <trkpt lat="48.87193" lon="1.32254">
        <ele>140</ele>
        <time>2007-05-09T06:36:20Z</time>
      </trkpt>
      <trkpt lat="48.87183" lon="1.32303">
        <ele>139</ele>
        <time>2007-05-09T06:36:29Z</time>
      </trkpt>
      <trkpt lat="48.87191" lon="1.32337">
        <ele>138.60000610352</ele>
        <time>2007-05-09T06:36:38Z</time>
      </trkpt>
      <trkpt lat="48.87224" lon="1.32352">
        <ele>139.19999694824</ele>
        <time>2007-05-09T06:36:47Z</time>
      </trkpt>
      <trkpt lat="48.87264" lon="1.32378">
        <ele>140.39999389648</ele>
        <time>2007-05-09T06:36:58Z</time>
      </trkpt>
      <trkpt lat="48.87294" lon="1.32392">
        <ele>141.39999389648</ele>
        <time>2007-05-09T06:37:07Z</time>
      </trkpt>
      <trkpt lat="48.87333" lon="1.32412">
        <ele>143</ele>
        <time>2007-05-09T06:37:18Z</time>
      </trkpt>
      <trkpt lat="48.87367" lon="1.32429">
        <ele>142.80000305176</ele>
        <time>2007-05-09T06:37:28Z</time>
      </trkpt>
      <trkpt lat="48.87393" lon="1.32439">
        <ele>142.60000610352</ele>
        <time>2007-05-09T06:37:35Z</time>
      </trkpt>
      <trkpt lat="48.87415" lon="1.32457">
        <ele>142.60000610352</ele>
        <time>2007-05-09T06:37:42Z</time>
      </trkpt>
      <trkpt lat="48.87435" lon="1.32471">
        <ele>142.19999694824</ele>
        <time>2007-05-09T06:37:48Z</time>
      </trkpt>
      <trkpt lat="48.87465" lon="1.32477">
        <ele>141.80000305176</ele>
        <time>2007-05-09T06:37:56Z</time>
      </trkpt>
      <trkpt lat="48.87489" lon="1.3249">
        <ele>141.80000305176</ele>
        <time>2007-05-09T06:38:03Z</time>
      </trkpt>
      <trkpt lat="48.87516" lon="1.32502">
        <ele>139.39999389648</ele>
        <time>2007-05-09T06:38:11Z</time>
      </trkpt>
      <trkpt lat="48.87535" lon="1.32508">
        <ele>136.80000305176</ele>
        <time>2007-05-09T06:38:16Z</time>
      </trkpt>
      <trkpt lat="48.87553" lon="1.32517">
        <ele>134.60000610352</ele>
        <time>2007-05-09T06:38:21Z</time>
      </trkpt>
      <trkpt lat="48.87585" lon="1.32537">
        <ele>132.39999389648</ele>
        <time>2007-05-09T06:38:31Z</time>
      </trkpt>
      <trkpt lat="48.87638" lon="1.32563">
        <ele>128</ele>
        <time>2007-05-09T06:38:45Z</time>
      </trkpt>
      <trkpt lat="48.87655" lon="1.32571">
        <ele>126.80000305176</ele>
        <time>2007-05-09T06:38:50Z</time>
      </trkpt>
      <trkpt lat="48.87693" lon="1.32592">
        <ele>122.40000152588</ele>
        <time>2007-05-09T06:39:01Z</time>
      </trkpt>
      <trkpt lat="48.87705" lon="1.32601">
        <ele>120.80000305176</ele>
        <time>2007-05-09T06:39:05Z</time>
      </trkpt>
      <trkpt lat="48.87743" lon="1.3262">
        <ele>115.40000152588</ele>
        <time>2007-05-09T06:39:16Z</time>
      </trkpt>
      <trkpt lat="48.87765" lon="1.32653">
        <ele>114.59999847412</ele>
        <time>2007-05-09T06:39:24Z</time>
      </trkpt>
      <trkpt lat="48.87769" lon="1.32672">
        <ele>114.80000305176</ele>
        <time>2007-05-09T06:39:28Z</time>
      </trkpt>
      <trkpt lat="48.87776" lon="1.32715">
        <ele>114.80000305176</ele>
        <time>2007-05-09T06:39:36Z</time>
      </trkpt>
      <trkpt lat="48.8779" lon="1.32765">
        <ele>112.80000305176</ele>
        <time>2007-05-09T06:39:46Z</time>
      </trkpt>
      <trkpt lat="48.87801" lon="1.32816">
        <ele>111.59999847412</ele>
        <time>2007-05-09T06:39:55Z</time>
      </trkpt>
      <trkpt lat="48.87807" lon="1.32837">
        <ele>111.19999694824</ele>
        <time>2007-05-09T06:39:59Z</time>
      </trkpt>
      <trkpt lat="48.87828" lon="1.32885">
        <ele>108</ele>
        <time>2007-05-09T06:40:10Z</time>
      </trkpt>
      <trkpt lat="48.87836" lon="1.32915">
        <ele>107.80000305176</ele>
        <time>2007-05-09T06:40:15Z</time>
      </trkpt>
      <trkpt lat="48.87852" lon="1.32957">
        <ele>105.19999694824</ele>
        <time>2007-05-09T06:40:24Z</time>
      </trkpt>
      <trkpt lat="48.87868" lon="1.33005">
        <ele>103</ele>
        <time>2007-05-09T06:40:34Z</time>
      </trkpt>
      <trkpt lat="48.87883" lon="1.33062">
        <ele>101</ele>
        <time>2007-05-09T06:40:44Z</time>
      </trkpt>
      <trkpt lat="48.87889" lon="1.3309">
        <ele>100.40000152588</ele>
        <time>2007-05-09T06:40:50Z</time>
      </trkpt>
      <trkpt lat="48.87897" lon="1.3314">
        <ele>100.59999847412</ele>
        <time>2007-05-09T06:40:59Z</time>
      </trkpt>
      <trkpt lat="48.8791" lon="1.3323">
        <ele>100.19999694824</ele>
        <time>2007-05-09T06:41:15Z</time>
      </trkpt>
      <trkpt lat="48.87928" lon="1.33312">
        <ele>101.80000305176</ele>
        <time>2007-05-09T06:41:30Z</time>
      </trkpt>
      <trkpt lat="48.87935" lon="1.33341">
        <ele>103</ele>
        <time>2007-05-09T06:41:36Z</time>
      </trkpt>
      <trkpt lat="48.87939" lon="1.33361">
        <ele>103.80000305176</ele>
        <time>2007-05-09T06:41:40Z</time>
      </trkpt>
      <trkpt lat="48.87956" lon="1.33432">
        <ele>106</ele>
        <time>2007-05-09T06:41:53Z</time>
      </trkpt>
      <trkpt lat="48.87968" lon="1.33472">
        <ele>106.59999847412</ele>
        <time>2007-05-09T06:42:01Z</time>
      </trkpt>
      <trkpt lat="48.87983" lon="1.33514">
        <ele>106.80000305176</ele>
        <time>2007-05-09T06:42:10Z</time>
      </trkpt>
      <trkpt lat="48.87997" lon="1.33593">
        <ele>104</ele>
        <time>2007-05-09T06:42:24Z</time>
      </trkpt>
      <trkpt lat="48.88004" lon="1.33624">
        <ele>102.59999847412</ele>
        <time>2007-05-09T06:42:30Z</time>
      </trkpt>
      <trkpt lat="48.88017" lon="1.33686">
        <ele>100.19999694824</ele>
        <time>2007-05-09T06:42:42Z</time>
      </trkpt>
      <trkpt lat="48.88038" lon="1.33761">
        <ele>99.800003051758</ele>
        <time>2007-05-09T06:42:56Z</time>
      </trkpt>
      <trkpt lat="48.88058" lon="1.3382">
        <ele>99.599998474121</ele>
        <time>2007-05-09T06:43:08Z</time>
      </trkpt>
      <trkpt lat="48.88062" lon="1.33864">
        <ele>101</ele>
        <time>2007-05-09T06:43:16Z</time>
      </trkpt>
      <trkpt lat="48.88033" lon="1.33858">
        <ele>101.59999847412</ele>
        <time>2007-05-09T06:43:24Z</time>
      </trkpt>
      <trkpt lat="48.87996" lon="1.33833">
        <ele>97.599998474121</ele>
        <time>2007-05-09T06:43:35Z</time>
      </trkpt>
      <trkpt lat="48.87956" lon="1.33808">
        <ele>101</ele>
        <time>2007-05-09T06:43:46Z</time>
      </trkpt>
      <trkpt lat="48.87941" lon="1.33799">
        <ele>101.59999847412</ele>
        <time>2007-05-09T06:43:51Z</time>
      </trkpt>
      <trkpt lat="48.87908" lon="1.33781">
        <ele>102.19999694824</ele>
        <time>2007-05-09T06:44:00Z</time>
      </trkpt>
      <trkpt lat="48.87895" lon="1.3377">
        <ele>102.80000305176</ele>
        <time>2007-05-09T06:44:04Z</time>
      </trkpt>
      <trkpt lat="48.87878" lon="1.33755">
        <ele>102.80000305176</ele>
        <time>2007-05-09T06:44:09Z</time>
      </trkpt>
      <trkpt lat="48.87849" lon="1.33737">
        <ele>104.80000305176</ele>
        <time>2007-05-09T06:44:17Z</time>
      </trkpt>
      <trkpt lat="48.87831" lon="1.33729">
        <ele>106.40000152588</ele>
        <time>2007-05-09T06:44:22Z</time>
      </trkpt>
      <trkpt lat="48.87804" lon="1.33722">
        <ele>114.19999694824</ele>
        <time>2007-05-09T06:44:30Z</time>
      </trkpt>
      <trkpt lat="48.87786" lon="1.33714">
        <ele>118.59999847412</ele>
        <time>2007-05-09T06:44:35Z</time>
      </trkpt>
      <trkpt lat="48.87771" lon="1.33709">
        <ele>123</ele>
        <time>2007-05-09T06:44:39Z</time>
      </trkpt>
      <trkpt lat="48.87764" lon="1.33706">
        <ele>124.80000305176</ele>
        <time>2007-05-09T06:44:41Z</time>
      </trkpt>
      <trkpt lat="48.87754" lon="1.337">
        <ele>127</ele>
        <time>2007-05-09T06:44:44Z</time>
      </trkpt>
      <trkpt lat="48.87738" lon="1.33689">
        <ele>128.80000305176</ele>
        <time>2007-05-09T06:44:48Z</time>
      </trkpt>
      <trkpt lat="48.87714" lon="1.33676">
        <ele>131.39999389648</ele>
        <time>2007-05-09T06:44:55Z</time>
      </trkpt>
      <trkpt lat="48.87686" lon="1.33659">
        <ele>135</ele>
        <time>2007-05-09T06:45:03Z</time>
      </trkpt>
      <trkpt lat="48.87709" lon="1.33704">
        <ele>134.60000610352</ele>
        <time>2007-05-09T06:45:17Z</time>
      </trkpt>
      <trkpt lat="48.87701" lon="1.33793">
        <ele>139.60000610352</ele>
        <time>2007-05-09T06:45:34Z</time>
      </trkpt>
      <trkpt lat="48.87692" lon="1.3383">
        <ele>140.39999389648</ele>
        <time>2007-05-09T06:45:40Z</time>
      </trkpt>
      <trkpt lat="48.87691" lon="1.33844">
        <ele>140.39999389648</ele>
        <time>2007-05-09T06:45:43Z</time>
      </trkpt>
      <trkpt lat="48.87688" lon="1.33859">
        <ele>140.60000610352</ele>
        <time>2007-05-09T06:45:46Z</time>
      </trkpt>
      <trkpt lat="48.87674" lon="1.33913">
        <ele>141</ele>
        <time>2007-05-09T06:45:56Z</time>
      </trkpt>
      <trkpt lat="48.87686" lon="1.33924">
        <ele>140.60000610352</ele>
        <time>2007-05-09T06:46:00Z</time>
      </trkpt>
      <trkpt lat="48.87698" lon="1.33928">
        <ele>140.39999389648</ele>
        <time>2007-05-09T06:46:04Z</time>
      </trkpt>
      <trkpt lat="48.87714" lon="1.33929">
        <ele>140.19999694824</ele>
        <time>2007-05-09T06:46:08Z</time>
      </trkpt>
      <trkpt lat="48.87743" lon="1.33929">
        <ele>140</ele>
        <time>2007-05-09T06:46:16Z</time>
      </trkpt>
      <trkpt lat="48.87758" lon="1.3393">
        <ele>139.39999389648</ele>
        <time>2007-05-09T06:46:20Z</time>
      </trkpt>
      <trkpt lat="48.87782" lon="1.33927">
        <ele>138.19999694824</ele>
        <time>2007-05-09T06:46:26Z</time>
      </trkpt>
      <trkpt lat="48.87831" lon="1.33935">
        <ele>135.60000610352</ele>
        <time>2007-05-09T06:46:40Z</time>
      </trkpt>
      <trkpt lat="48.87874" lon="1.33945">
        <ele>132.19999694824</ele>
        <time>2007-05-09T06:46:52Z</time>
      </trkpt>
      <trkpt lat="48.87901" lon="1.33957">
        <ele>130.60000610352</ele>
        <time>2007-05-09T06:46:59Z</time>
      </trkpt>
      <trkpt lat="48.87928" lon="1.33983">
        <ele>130.19999694824</ele>
        <time>2007-05-09T06:47:08Z</time>
      </trkpt>
      <trkpt lat="48.87949" lon="1.33999">
        <ele>130.39999389648</ele>
        <time>2007-05-09T06:47:14Z</time>
      </trkpt>
      <trkpt lat="48.87973" lon="1.34025">
        <ele>129.19999694824</ele>
        <time>2007-05-09T06:47:22Z</time>
      </trkpt>
      <trkpt lat="48.87989" lon="1.34051">
        <ele>128.39999389648</ele>
        <time>2007-05-09T06:47:28Z</time>
      </trkpt>
      <trkpt lat="48.88014" lon="1.34095">
        <ele>125.59999847412</ele>
        <time>2007-05-09T06:47:39Z</time>
      </trkpt>
      <trkpt lat="48.88036" lon="1.34142">
        <ele>121.40000152588</ele>
        <time>2007-05-09T06:47:49Z</time>
      </trkpt>
      <trkpt lat="48.8805" lon="1.3417">
        <ele>119.80000305176</ele>
        <time>2007-05-09T06:47:55Z</time>
      </trkpt>
      <trkpt lat="48.88042" lon="1.34235">
        <ele>120</ele>
        <time>2007-05-09T06:48:08Z</time>
      </trkpt>
      <trkpt lat="48.88005" lon="1.34319">
        <ele>120.80000305176</ele>
        <time>2007-05-09T06:48:26Z</time>
      </trkpt>
      <trkpt lat="48.87996" lon="1.34338">
        <ele>121</ele>
        <time>2007-05-09T06:48:30Z</time>
      </trkpt>
      <trkpt lat="48.87985" lon="1.3436">
        <ele>121.19999694824</ele>
        <time>2007-05-09T06:48:35Z</time>
      </trkpt>
      <trkpt lat="48.87961" lon="1.34384">
        <ele>122</ele>
        <time>2007-05-09T06:48:43Z</time>
      </trkpt>
      <trkpt lat="48.87947" lon="1.34434">
        <ele>121.40000152588</ele>
        <time>2007-05-09T06:48:52Z</time>
      </trkpt>
      <trkpt lat="48.87941" lon="1.3449">
        <ele>119.80000305176</ele>
        <time>2007-05-09T06:49:02Z</time>
      </trkpt>
      <trkpt lat="48.87936" lon="1.34553">
        <ele>118.80000305176</ele>
        <time>2007-05-09T06:49:13Z</time>
      </trkpt>
      <trkpt lat="48.87924" lon="1.3461">
        <ele>118.80000305176</ele>
        <time>2007-05-09T06:49:24Z</time>
      </trkpt>
      <trkpt lat="48.87906" lon="1.3465">
        <ele>118</ele>
        <time>2007-05-09T06:49:33Z</time>
      </trkpt>
      <trkpt lat="48.87894" lon="1.34681">
        <ele>116.40000152588</ele>
        <time>2007-05-09T06:49:39Z</time>
      </trkpt>
      <trkpt lat="48.87884" lon="1.347">
        <ele>115.40000152588</ele>
        <time>2007-05-09T06:49:43Z</time>
      </trkpt>
      <trkpt lat="48.8787" lon="1.34734">
        <ele>113.80000305176</ele>
        <time>2007-05-09T06:49:50Z</time>
      </trkpt>
      <trkpt lat="48.87856" lon="1.34765">
        <ele>112.40000152588</ele>
        <time>2007-05-09T06:49:57Z</time>
      </trkpt>
      <trkpt lat="48.8783" lon="1.34804">
        <ele>109.80000305176</ele>
        <time>2007-05-09T06:50:07Z</time>
      </trkpt>
      <trkpt lat="48.87817" lon="1.34831">
        <ele>108.19999694824</ele>
        <time>2007-05-09T06:50:13Z</time>
      </trkpt>
      <trkpt lat="48.87802" lon="1.34869">
        <ele>108</ele>
        <time>2007-05-09T06:50:21Z</time>
      </trkpt>
      <trkpt lat="48.87786" lon="1.3492">
        <ele>107.59999847412</ele>
        <time>2007-05-09T06:50:30Z</time>
      </trkpt>
      <trkpt lat="48.87777" lon="1.34954">
        <ele>107.19999694824</ele>
        <time>2007-05-09T06:50:37Z</time>
      </trkpt>
      <trkpt lat="48.87767" lon="1.35">
        <ele>106.80000305176</ele>
        <time>2007-05-09T06:50:45Z</time>
      </trkpt>
      <trkpt lat="48.8775" lon="1.35077">
        <ele>105</ele>
        <time>2007-05-09T06:51:00Z</time>
      </trkpt>
      <trkpt lat="48.87736" lon="1.3513">
        <ele>103.80000305176</ele>
        <time>2007-05-09T06:51:10Z</time>
      </trkpt>
      <trkpt lat="48.87726" lon="1.35173">
        <ele>102.80000305176</ele>
        <time>2007-05-09T06:51:18Z</time>
      </trkpt>
      <trkpt lat="48.87713" lon="1.3523">
        <ele>100.80000305176</ele>
        <time>2007-05-09T06:51:29Z</time>
      </trkpt>
      <trkpt lat="48.87705" lon="1.35266">
        <ele>100.19999694824</ele>
        <time>2007-05-09T06:51:35Z</time>
      </trkpt>
      <trkpt lat="48.87699" lon="1.35294">
        <ele>100.19999694824</ele>
        <time>2007-05-09T06:51:41Z</time>
      </trkpt>
      <trkpt lat="48.87687" lon="1.35336">
        <ele>100.19999694824</ele>
        <time>2007-05-09T06:51:49Z</time>
      </trkpt>
      <trkpt lat="48.87681" lon="1.35359">
        <ele>99.800003051758</ele>
        <time>2007-05-09T06:51:53Z</time>
      </trkpt>
      <trkpt lat="48.87675" lon="1.35389">
        <ele>99.599998474121</ele>
        <time>2007-05-09T06:51:59Z</time>
      </trkpt>
      <trkpt lat="48.8765" lon="1.3545">
        <ele>99</ele>
        <time>2007-05-09T06:52:11Z</time>
      </trkpt>
      <trkpt lat="48.87629" lon="1.35494">
        <ele>98.599998474121</ele>
        <time>2007-05-09T06:52:21Z</time>
      </trkpt>
      <trkpt lat="48.87615" lon="1.35532">
        <ele>97.400001525879</ele>
        <time>2007-05-09T06:52:29Z</time>
      </trkpt>
      <trkpt lat="48.87622" lon="1.35552">
        <ele>97.199996948242</ele>
        <time>2007-05-09T06:52:33Z</time>
      </trkpt>
      <trkpt lat="48.87645" lon="1.35565">
        <ele>97.599998474121</ele>
        <time>2007-05-09T06:52:40Z</time>
      </trkpt>
      <trkpt lat="48.87692" lon="1.35552">
        <ele>100.59999847412</ele>
        <time>2007-05-09T06:52:53Z</time>
      </trkpt>
      <trkpt lat="48.87734" lon="1.35548">
        <ele>103.80000305176</ele>
        <time>2007-05-09T06:53:04Z</time>
      </trkpt>
      <trkpt lat="48.87751" lon="1.35554">
        <ele>105</ele>
        <time>2007-05-09T06:53:09Z</time>
      </trkpt>
      <trkpt lat="48.8778" lon="1.35573">
        <ele>105</ele>
        <time>2007-05-09T06:53:18Z</time>
      </trkpt>
      <trkpt lat="48.87807" lon="1.35591">
        <ele>104.80000305176</ele>
        <time>2007-05-09T06:53:26Z</time>
      </trkpt>
      <trkpt lat="48.87819" lon="1.35601">
        <ele>104.40000152588</ele>
        <time>2007-05-09T06:53:29Z</time>
      </trkpt>
      <trkpt lat="48.87838" lon="1.3562">
        <ele>103.59999847412</ele>
        <time>2007-05-09T06:53:36Z</time>
      </trkpt>
      <trkpt lat="48.87872" lon="1.35655">
        <ele>101</ele>
        <time>2007-05-09T06:53:47Z</time>
      </trkpt>
      <trkpt lat="48.87909" lon="1.35701">
        <ele>98.400001525879</ele>
        <time>2007-05-09T06:53:59Z</time>
      </trkpt>
      <trkpt lat="48.87937" lon="1.35738">
        <ele>96.400001525879</ele>
        <time>2007-05-09T06:54:09Z</time>
      </trkpt>
      <trkpt lat="48.87963" lon="1.3578">
        <ele>93.800003051758</ele>
        <time>2007-05-09T06:54:20Z</time>
      </trkpt>
      <trkpt lat="48.87954" lon="1.3583">
        <ele>92.800003051758</ele>
        <time>2007-05-09T06:54:30Z</time>
      </trkpt>
      <trkpt lat="48.87928" lon="1.35898">
        <ele>91.400001525879</ele>
        <time>2007-05-09T06:54:43Z</time>
      </trkpt>
      <trkpt lat="48.87916" lon="1.35928">
        <ele>90.599998474121</ele>
        <time>2007-05-09T06:54:50Z</time>
      </trkpt>
      <trkpt lat="48.87903" lon="1.35949">
        <ele>90.199996948242</ele>
        <time>2007-05-09T06:54:55Z</time>
      </trkpt>
      <trkpt lat="48.87865" lon="1.35995">
        <ele>90.599998474121</ele>
        <time>2007-05-09T06:55:08Z</time>
      </trkpt>
      <trkpt lat="48.87847" lon="1.36012">
        <ele>91</ele>
        <time>2007-05-09T06:55:13Z</time>
      </trkpt>
      <trkpt lat="48.87805" lon="1.36057">
        <ele>90</ele>
        <time>2007-05-09T06:55:27Z</time>
      </trkpt>
      <trkpt lat="48.87753" lon="1.36136">
        <ele>87.800003051758</ele>
        <time>2007-05-09T06:55:47Z</time>
      </trkpt>
      <trkpt lat="48.8774" lon="1.36196">
        <ele>87.599998474121</ele>
        <time>2007-05-09T06:55:58Z</time>
      </trkpt>
      <trkpt lat="48.87727" lon="1.36237">
        <ele>88.400001525879</ele>
        <time>2007-05-09T06:56:06Z</time>
      </trkpt>
      <trkpt lat="48.87704" lon="1.36277">
        <ele>89</ele>
        <time>2007-05-09T06:56:15Z</time>
      </trkpt>
      <trkpt lat="48.87665" lon="1.36314">
        <ele>90.599998474121</ele>
        <time>2007-05-09T06:56:28Z</time>
      </trkpt>
      <trkpt lat="48.87639" lon="1.36338">
        <ele>93.199996948242</ele>
        <time>2007-05-09T06:56:36Z</time>
      </trkpt>
      <trkpt lat="48.8761" lon="1.36356">
        <ele>96</ele>
        <time>2007-05-09T06:56:44Z</time>
      </trkpt>
      <trkpt lat="48.87586" lon="1.3637">
        <ele>98.199996948242</ele>
        <time>2007-05-09T06:56:51Z</time>
      </trkpt>
      <trkpt lat="48.87559" lon="1.3639">
        <ele>99</ele>
        <time>2007-05-09T06:56:59Z</time>
      </trkpt>
      <trkpt lat="48.87519" lon="1.36408">
        <ele>100.40000152588</ele>
        <time>2007-05-09T06:57:11Z</time>
      </trkpt>
      <trkpt lat="48.87506" lon="1.36376">
        <ele>101.80000305176</ele>
        <time>2007-05-09T06:57:17Z</time>
      </trkpt>
      <trkpt lat="48.87482" lon="1.36314">
        <ele>103.40000152588</ele>
        <time>2007-05-09T06:57:30Z</time>
      </trkpt>
      <trkpt lat="48.8747" lon="1.3628">
        <ele>104.19999694824</ele>
        <time>2007-05-09T06:57:36Z</time>
      </trkpt>
      <trkpt lat="48.87445" lon="1.36275">
        <ele>104.40000152588</ele>
        <time>2007-05-09T06:57:45Z</time>
      </trkpt>
      <trkpt lat="48.87433" lon="1.36285">
        <ele>104.19999694824</ele>
        <time>2007-05-09T06:57:48Z</time>
      </trkpt>
      <trkpt lat="48.87411" lon="1.36309">
        <ele>103.40000152588</ele>
        <time>2007-05-09T06:57:56Z</time>
      </trkpt>
      <trkpt lat="48.87397" lon="1.36325">
        <ele>102.59999847412</ele>
        <time>2007-05-09T06:58:00Z</time>
      </trkpt>
      <trkpt lat="48.87369" lon="1.36358">
        <ele>100.19999694824</ele>
        <time>2007-05-09T06:58:10Z</time>
      </trkpt>
      <trkpt lat="48.87341" lon="1.36393">
        <ele>97.400001525879</ele>
        <time>2007-05-09T06:58:20Z</time>
      </trkpt>
      <trkpt lat="48.87294" lon="1.36448">
        <ele>95.199996948242</ele>
        <time>2007-05-09T06:58:36Z</time>
      </trkpt>
      <trkpt lat="48.87265" lon="1.36488">
        <ele>93.800003051758</ele>
        <time>2007-05-09T06:58:46Z</time>
      </trkpt>
      <trkpt lat="48.87243" lon="1.36523">
        <ele>92.800003051758</ele>
        <time>2007-05-09T06:58:55Z</time>
      </trkpt>
      <trkpt lat="48.87228" lon="1.36555">
        <ele>92.599998474121</ele>
        <time>2007-05-09T06:59:02Z</time>
      </trkpt>
      <trkpt lat="48.87207" lon="1.36609">
        <ele>91.400001525879</ele>
        <time>2007-05-09T06:59:12Z</time>
      </trkpt>
      <trkpt lat="48.87196" lon="1.36665">
        <ele>89.599998474121</ele>
        <time>2007-05-09T06:59:23Z</time>
      </trkpt>
      <trkpt lat="48.87187" lon="1.36704">
        <ele>89.199996948242</ele>
        <time>2007-05-09T06:59:30Z</time>
      </trkpt>
      <trkpt lat="48.87189" lon="1.36729">
        <ele>88.400001525879</ele>
        <time>2007-05-09T06:59:35Z</time>
      </trkpt>
      <trkpt lat="48.87187" lon="1.36791">
        <ele>86</ele>
        <time>2007-05-09T06:59:46Z</time>
      </trkpt>
      <trkpt lat="48.87181" lon="1.36862">
        <ele>83.400001525879</ele>
        <time>2007-05-09T06:59:58Z</time>
      </trkpt>
      <trkpt lat="48.8718" lon="1.36894">
        <ele>82.599998474121</ele>
        <time>2007-05-09T07:00:04Z</time>
      </trkpt>
      <trkpt lat="48.8718" lon="1.3694">
        <ele>81.599998474121</ele>
        <time>2007-05-09T07:00:12Z</time>
      </trkpt>
      <trkpt lat="48.87181" lon="1.36993">
        <ele>81</ele>
        <time>2007-05-09T07:00:21Z</time>
      </trkpt>
      <trkpt lat="48.87183" lon="1.37096">
        <ele>79.400001525879</ele>
        <time>2007-05-09T07:00:40Z</time>
      </trkpt>
      <trkpt lat="48.87193" lon="1.37204">
        <ele>78.400001525879</ele>
        <time>2007-05-09T07:00:59Z</time>
      </trkpt>
      <trkpt lat="48.87196" lon="1.3723">
        <ele>78.800003051758</ele>
        <time>2007-05-09T07:01:04Z</time>
      </trkpt>
      <trkpt lat="48.87201" lon="1.37269">
        <ele>79</ele>
        <time>2007-05-09T07:01:11Z</time>
      </trkpt>
      <trkpt lat="48.87211" lon="1.37324">
        <ele>79</ele>
        <time>2007-05-09T07:01:21Z</time>
      </trkpt>
      <trkpt lat="48.87225" lon="1.3736">
        <ele>79.199996948242</ele>
        <time>2007-05-09T07:01:29Z</time>
      </trkpt>
      <trkpt lat="48.87229" lon="1.37373">
        <ele>79.199996948242</ele>
        <time>2007-05-09T07:01:31Z</time>
      </trkpt>
      <trkpt lat="48.87246" lon="1.37411">
        <ele>79</ele>
        <time>2007-05-09T07:01:39Z</time>
      </trkpt>
      <trkpt lat="48.87274" lon="1.37447">
        <ele>83.400001525879</ele>
        <time>2007-05-09T07:01:49Z</time>
      </trkpt>
      <trkpt lat="48.87294" lon="1.37473">
        <ele>86.400001525879</ele>
        <time>2007-05-09T07:01:56Z</time>
      </trkpt>
      <trkpt lat="48.87315" lon="1.37501">
        <ele>88.800003051758</ele>
        <time>2007-05-09T07:02:04Z</time>
      </trkpt>
      <trkpt lat="48.87332" lon="1.3753">
        <ele>90</ele>
        <time>2007-05-09T07:02:11Z</time>
      </trkpt>
      <trkpt lat="48.87339" lon="1.37542">
        <ele>91</ele>
        <time>2007-05-09T07:02:14Z</time>
      </trkpt>
      <trkpt lat="48.87364" lon="1.37568">
        <ele>96.199996948242</ele>
        <time>2007-05-09T07:02:22Z</time>
      </trkpt>
      <trkpt lat="48.87376" lon="1.37594">
        <ele>98.599998474121</ele>
        <time>2007-05-09T07:02:28Z</time>
      </trkpt>
      <trkpt lat="48.87396" lon="1.37645">
        <ele>103.40000152588</ele>
        <time>2007-05-09T07:02:38Z</time>
      </trkpt>
      <trkpt lat="48.87407" lon="1.3766">
        <ele>106.40000152588</ele>
        <time>2007-05-09T07:02:43Z</time>
      </trkpt>
      <trkpt lat="48.87414" lon="1.37673">
        <ele>108</ele>
        <time>2007-05-09T07:02:45Z</time>
      </trkpt>
      <trkpt lat="48.8743" lon="1.37704">
        <ele>111.40000152588</ele>
        <time>2007-05-09T07:02:53Z</time>
      </trkpt>
      <trkpt lat="48.87439" lon="1.3772">
        <ele>113</ele>
        <time>2007-05-09T07:02:56Z</time>
      </trkpt>
      <trkpt lat="48.87458" lon="1.37769">
        <ele>117</ele>
        <time>2007-05-09T07:03:07Z</time>
      </trkpt>
      <trkpt lat="48.87459" lon="1.37803">
        <ele>117.59999847412</ele>
        <time>2007-05-09T07:03:13Z</time>
      </trkpt>
      <trkpt lat="48.87472" lon="1.37849">
        <ele>121</ele>
        <time>2007-05-09T07:03:22Z</time>
      </trkpt>
      <trkpt lat="48.87489" lon="1.37887">
        <ele>125.80000305176</ele>
        <time>2007-05-09T07:03:30Z</time>
      </trkpt>
      <trkpt lat="48.87517" lon="1.37937">
        <ele>130</ele>
        <time>2007-05-09T07:03:42Z</time>
      </trkpt>
      <trkpt lat="48.87529" lon="1.37987">
        <ele>131.39999389648</ele>
        <time>2007-05-09T07:03:52Z</time>
      </trkpt>
      <trkpt lat="48.87539" lon="1.38027">
        <ele>132.19999694824</ele>
        <time>2007-05-09T07:03:59Z</time>
      </trkpt>
      <trkpt lat="48.87549" lon="1.38056">
        <ele>132.80000305176</ele>
        <time>2007-05-09T07:04:05Z</time>
      </trkpt>
      <trkpt lat="48.87552" lon="1.38111">
        <ele>133.19999694824</ele>
        <time>2007-05-09T07:04:15Z</time>
      </trkpt>
      <trkpt lat="48.87558" lon="1.38142">
        <ele>133.19999694824</ele>
        <time>2007-05-09T07:04:21Z</time>
      </trkpt>
      <trkpt lat="48.87579" lon="1.38192">
        <ele>134</ele>
        <time>2007-05-09T07:04:32Z</time>
      </trkpt>
      <trkpt lat="48.87577" lon="1.38214">
        <ele>134.80000305176</ele>
        <time>2007-05-09T07:04:36Z</time>
      </trkpt>
      <trkpt lat="48.87595" lon="1.38256">
        <ele>135.60000610352</ele>
        <time>2007-05-09T07:04:46Z</time>
      </trkpt>
      <trkpt lat="48.87612" lon="1.38277">
        <ele>135.19999694824</ele>
        <time>2007-05-09T07:04:52Z</time>
      </trkpt>
      <trkpt lat="48.87628" lon="1.38297">
        <ele>135</ele>
        <time>2007-05-09T07:04:57Z</time>
      </trkpt>
      <trkpt lat="48.8765" lon="1.3831">
        <ele>134.39999389648</ele>
        <time>2007-05-09T07:05:04Z</time>
      </trkpt>
      <trkpt lat="48.87678" lon="1.38327">
        <ele>134</ele>
        <time>2007-05-09T07:05:12Z</time>
      </trkpt>
      <trkpt lat="48.87716" lon="1.38357">
        <ele>133.60000610352</ele>
        <time>2007-05-09T07:05:24Z</time>
      </trkpt>
      <trkpt lat="48.87755" lon="1.38387">
        <ele>132.80000305176</ele>
        <time>2007-05-09T07:05:35Z</time>
      </trkpt>
      <trkpt lat="48.87786" lon="1.38414">
        <ele>132.39999389648</ele>
        <time>2007-05-09T07:05:45Z</time>
      </trkpt>
      <trkpt lat="48.87824" lon="1.38445">
        <ele>133.19999694824</ele>
        <time>2007-05-09T07:05:57Z</time>
      </trkpt>
      <trkpt lat="48.87841" lon="1.3846">
        <ele>133.39999389648</ele>
        <time>2007-05-09T07:06:02Z</time>
      </trkpt>
      <trkpt lat="48.8787" lon="1.38479">
        <ele>133</ele>
        <time>2007-05-09T07:06:10Z</time>
      </trkpt>
      <trkpt lat="48.87887" lon="1.38491">
        <ele>132.80000305176</ele>
        <time>2007-05-09T07:06:16Z</time>
      </trkpt>
      <trkpt lat="48.879" lon="1.38501">
        <ele>132.39999389648</ele>
        <time>2007-05-09T07:06:20Z</time>
      </trkpt>
      <trkpt lat="48.87929" lon="1.38494">
        <ele>132.19999694824</ele>
        <time>2007-05-09T07:06:29Z</time>
      </trkpt>
      <trkpt lat="48.87943" lon="1.38457">
        <ele>132.80000305176</ele>
        <time>2007-05-09T07:06:36Z</time>
      </trkpt>
      <trkpt lat="48.87954" lon="1.38423">
        <ele>133.39999389648</ele>
        <time>2007-05-09T07:06:43Z</time>
      </trkpt>
      <trkpt lat="48.8796" lon="1.38401">
        <ele>133.19999694824</ele>
        <time>2007-05-09T07:06:47Z</time>
      </trkpt>
      <trkpt lat="48.87966" lon="1.38377">
        <ele>132.80000305176</ele>
        <time>2007-05-09T07:06:52Z</time>
      </trkpt>
      <trkpt lat="48.87981" lon="1.38324">
        <ele>131.60000610352</ele>
        <time>2007-05-09T07:07:02Z</time>
      </trkpt>
      <trkpt lat="48.87992" lon="1.38276">
        <ele>129</ele>
        <time>2007-05-09T07:07:11Z</time>
      </trkpt>
      <trkpt lat="48.88015" lon="1.38208">
        <ele>120.80000305176</ele>
        <time>2007-05-09T07:07:24Z</time>
      </trkpt>
      <trkpt lat="48.88021" lon="1.38182">
        <ele>116.59999847412</ele>
        <time>2007-05-09T07:07:29Z</time>
      </trkpt>
      <trkpt lat="48.88024" lon="1.38167">
        <ele>114.19999694824</ele>
        <time>2007-05-09T07:07:32Z</time>
      </trkpt>
      <trkpt lat="48.88026" lon="1.38144">
        <ele>110.40000152588</ele>
        <time>2007-05-09T07:07:36Z</time>
      </trkpt>
      <trkpt lat="48.88031" lon="1.3813">
        <ele>107.80000305176</ele>
        <time>2007-05-09T07:07:39Z</time>
      </trkpt>
      <trkpt lat="48.88027" lon="1.38083">
        <ele>101.19999694824</ele>
        <time>2007-05-09T07:07:47Z</time>
      </trkpt>
      <trkpt lat="48.88012" lon="1.38067">
        <ele>102.19999694824</ele>
        <time>2007-05-09T07:07:53Z</time>
      </trkpt>
      <trkpt lat="48.88001" lon="1.38084">
        <ele>104</ele>
        <time>2007-05-09T07:07:57Z</time>
      </trkpt>
      <trkpt lat="48.88" lon="1.38093">
        <ele>105.59999847412</ele>
        <time>2007-05-09T07:07:59Z</time>
      </trkpt>
      <trkpt lat="48.87995" lon="1.38098">
        <ele>107.80000305176</ele>
        <time>2007-05-09T07:08:01Z</time>
      </trkpt>
      <trkpt lat="48.87992" lon="1.38101">
        <ele>109</ele>
        <time>2007-05-09T07:08:02Z</time>
      </trkpt>
      <trkpt lat="48.8799" lon="1.38108">
        <ele>110.40000152588</ele>
        <time>2007-05-09T07:08:04Z</time>
      </trkpt>
      <trkpt lat="48.87979" lon="1.38127">
        <ele>115.59999847412</ele>
        <time>2007-05-09T07:08:08Z</time>
      </trkpt>
      <trkpt lat="48.87972" lon="1.38135">
        <ele>118</ele>
        <time>2007-05-09T07:08:11Z</time>
      </trkpt>
      <trkpt lat="48.87966" lon="1.3814">
        <ele>119.80000305176</ele>
        <time>2007-05-09T07:08:13Z</time>
      </trkpt>
      <trkpt lat="48.87961" lon="1.38137">
        <ele>120.59999847412</ele>
        <time>2007-05-09T07:08:16Z</time>
      </trkpt>
      <trkpt lat="48.87958" lon="1.3809">
        <ele>116.59999847412</ele>
        <time>2007-05-09T07:08:24Z</time>
      </trkpt>
      <trkpt lat="48.87955" lon="1.3806">
        <ele>115.80000305176</ele>
        <time>2007-05-09T07:08:29Z</time>
      </trkpt>
      <trkpt lat="48.87949" lon="1.37994">
        <ele>114.19999694824</ele>
        <time>2007-05-09T07:08:41Z</time>
      </trkpt>
      <trkpt lat="48.87963" lon="1.37938">
        <ele>108.19999694824</ele>
        <time>2007-05-09T07:08:52Z</time>
      </trkpt>
      <trkpt lat="48.87977" lon="1.37879">
        <ele>104</ele>
        <time>2007-05-09T07:09:03Z</time>
      </trkpt>
      <trkpt lat="48.87987" lon="1.37838">
        <ele>101.40000152588</ele>
        <time>2007-05-09T07:09:11Z</time>
      </trkpt>
      <trkpt lat="48.88004" lon="1.37787">
        <ele>96.599998474121</ele>
        <time>2007-05-09T07:09:21Z</time>
      </trkpt>
      <trkpt lat="48.88013" lon="1.378">
        <ele>96.400001525879</ele>
        <time>2007-05-09T07:09:25Z</time>
      </trkpt>
      <trkpt lat="48.88022" lon="1.37823">
        <ele>96.599998474121</ele>
        <time>2007-05-09T07:09:30Z</time>
      </trkpt>
      <trkpt lat="48.88038" lon="1.37846">
        <ele>96.400001525879</ele>
        <time>2007-05-09T07:09:36Z</time>
      </trkpt>
      <trkpt lat="48.88054" lon="1.3787">
        <ele>96</ele>
        <time>2007-05-09T07:09:42Z</time>
      </trkpt>
      <trkpt lat="48.88061" lon="1.37884">
        <ele>96</ele>
        <time>2007-05-09T07:09:45Z</time>
      </trkpt>
      <trkpt lat="48.88078" lon="1.37896">
        <ele>95.599998474121</ele>
        <time>2007-05-09T07:09:51Z</time>
      </trkpt>
      <trkpt lat="48.88094" lon="1.37915">
        <ele>95.400001525879</ele>
        <time>2007-05-09T07:09:57Z</time>
      </trkpt>
      <trkpt lat="48.88097" lon="1.37943">
        <ele>95.199996948242</ele>
        <time>2007-05-09T07:10:02Z</time>
      </trkpt>
      <trkpt lat="48.88101" lon="1.37975">
        <ele>94.800003051758</ele>
        <time>2007-05-09T07:10:08Z</time>
      </trkpt>
      <trkpt lat="48.88105" lon="1.37993">
        <ele>94.599998474121</ele>
        <time>2007-05-09T07:10:12Z</time>
      </trkpt>
      <trkpt lat="48.88109" lon="1.38027">
        <ele>94.599998474121</ele>
        <time>2007-05-09T07:10:18Z</time>
      </trkpt>
      <trkpt lat="48.88109" lon="1.38083">
        <ele>95.400001525879</ele>
        <time>2007-05-09T07:10:28Z</time>
      </trkpt>
      <trkpt lat="48.88104" lon="1.38119">
        <ele>100.40000152588</ele>
        <time>2007-05-09T07:10:34Z</time>
      </trkpt>
      <trkpt lat="48.88103" lon="1.38126">
        <ele>101.40000152588</ele>
        <time>2007-05-09T07:10:36Z</time>
      </trkpt>
      <trkpt lat="48.88104" lon="1.38135">
        <ele>102.59999847412</ele>
        <time>2007-05-09T07:10:37Z</time>
      </trkpt>
      <trkpt lat="48.88102" lon="1.38148">
        <ele>104.59999847412</ele>
        <time>2007-05-09T07:10:40Z</time>
      </trkpt>
      <trkpt lat="48.88103" lon="1.38159">
        <ele>106.19999694824</ele>
        <time>2007-05-09T07:10:42Z</time>
      </trkpt>
      <trkpt lat="48.88104" lon="1.38176">
        <ele>109</ele>
        <time>2007-05-09T07:10:45Z</time>
      </trkpt>
      <trkpt lat="48.88105" lon="1.38204">
        <ele>113.80000305176</ele>
        <time>2007-05-09T07:10:50Z</time>
      </trkpt>
      <trkpt lat="48.88104" lon="1.38211">
        <ele>115.19999694824</ele>
        <time>2007-05-09T07:10:52Z</time>
      </trkpt>
      <trkpt lat="48.88104" lon="1.38236">
        <ele>119.40000152588</ele>
        <time>2007-05-09T07:10:56Z</time>
      </trkpt>
      <trkpt lat="48.88103" lon="1.38266">
        <ele>123</ele>
        <time>2007-05-09T07:11:01Z</time>
      </trkpt>
      <trkpt lat="48.88115" lon="1.38333">
        <ele>125.59999847412</ele>
        <time>2007-05-09T07:11:14Z</time>
      </trkpt>
      <trkpt lat="48.88137" lon="1.38412">
        <ele>127.19999694824</ele>
        <time>2007-05-09T07:11:29Z</time>
      </trkpt>
      <trkpt lat="48.88146" lon="1.38449">
        <ele>127.19999694824</ele>
        <time>2007-05-09T07:11:36Z</time>
      </trkpt>
      <trkpt lat="48.88151" lon="1.38476">
        <ele>127</ele>
        <time>2007-05-09T07:11:41Z</time>
      </trkpt>
      <trkpt lat="48.88157" lon="1.38499">
        <ele>126.80000305176</ele>
        <time>2007-05-09T07:11:46Z</time>
      </trkpt>
      <trkpt lat="48.88174" lon="1.38552">
        <ele>126.19999694824</ele>
        <time>2007-05-09T07:11:56Z</time>
      </trkpt>
      <trkpt lat="48.88195" lon="1.38592">
        <ele>125</ele>
        <time>2007-05-09T07:12:07Z</time>
      </trkpt>
      <trkpt lat="48.88229" lon="1.38595">
        <ele>122.19999694824</ele>
        <time>2007-05-09T07:12:17Z</time>
      </trkpt>
      <trkpt lat="48.88253" lon="1.38664">
        <ele>116.80000305176</ele>
        <time>2007-05-09T07:12:31Z</time>
      </trkpt>
      <trkpt lat="48.88273" lon="1.38759">
        <ele>116.40000152588</ele>
        <time>2007-05-09T07:12:48Z</time>
      </trkpt>
      <trkpt lat="48.88276" lon="1.38777">
        <ele>116.80000305176</ele>
        <time>2007-05-09T07:12:52Z</time>
      </trkpt>
      <trkpt lat="48.88308" lon="1.38758">
        <ele>114.80000305176</ele>
        <time>2007-05-09T07:13:01Z</time>
      </trkpt>
      <trkpt lat="48.88332" lon="1.38742">
        <ele>113.59999847412</ele>
        <time>2007-05-09T07:13:08Z</time>
      </trkpt>
      <trkpt lat="48.88346" lon="1.3874">
        <ele>110.80000305176</ele>
        <time>2007-05-09T07:13:12Z</time>
      </trkpt>
      <trkpt lat="48.8836" lon="1.38733">
        <ele>107.80000305176</ele>
        <time>2007-05-09T07:13:16Z</time>
      </trkpt>
      <trkpt lat="48.88364" lon="1.3871">
        <ele>105.80000305176</ele>
        <time>2007-05-09T07:13:20Z</time>
      </trkpt>
      <trkpt lat="48.88369" lon="1.38638">
        <ele>102</ele>
        <time>2007-05-09T07:13:34Z</time>
      </trkpt>
      <trkpt lat="48.8836" lon="1.386">
        <ele>102.19999694824</ele>
        <time>2007-05-09T07:13:41Z</time>
      </trkpt>
      <trkpt lat="48.8836" lon="1.3858">
        <ele>101.40000152588</ele>
        <time>2007-05-09T07:13:44Z</time>
      </trkpt>
      <trkpt lat="48.88358" lon="1.38551">
        <ele>100.80000305176</ele>
        <time>2007-05-09T07:13:50Z</time>
      </trkpt>
      <trkpt lat="48.88354" lon="1.38517">
        <ele>100.40000152588</ele>
        <time>2007-05-09T07:13:56Z</time>
      </trkpt>
      <trkpt lat="48.88356" lon="1.38487">
        <ele>99</ele>
        <time>2007-05-09T07:14:01Z</time>
      </trkpt>
      <trkpt lat="48.88352" lon="1.38431">
        <ele>96.800003051758</ele>
        <time>2007-05-09T07:14:11Z</time>
      </trkpt>
      <trkpt lat="48.88342" lon="1.38417">
        <ele>96.599998474121</ele>
        <time>2007-05-09T07:14:15Z</time>
      </trkpt>
      <trkpt lat="48.88326" lon="1.38387">
        <ele>96.599998474121</ele>
        <time>2007-05-09T07:14:22Z</time>
      </trkpt>
      <trkpt lat="48.88327" lon="1.38347">
        <ele>93.599998474121</ele>
        <time>2007-05-09T07:14:29Z</time>
      </trkpt>
      <trkpt lat="48.88343" lon="1.38315">
        <ele>92.800003051758</ele>
        <time>2007-05-09T07:14:36Z</time>
      </trkpt>
      <trkpt lat="48.88355" lon="1.38301">
        <ele>94.199996948242</ele>
        <time>2007-05-09T07:14:40Z</time>
      </trkpt>
      <trkpt lat="48.8837" lon="1.3828">
        <ele>96.599998474121</ele>
        <time>2007-05-09T07:14:46Z</time>
      </trkpt>
      <trkpt lat="48.88395" lon="1.38252">
        <ele>102.19999694824</ele>
        <time>2007-05-09T07:14:55Z</time>
      </trkpt>
      <trkpt lat="48.8841" lon="1.38208">
        <ele>105.80000305176</ele>
        <time>2007-05-09T07:15:03Z</time>
      </trkpt>
      <trkpt lat="48.88418" lon="1.38181">
        <ele>108</ele>
        <time>2007-05-09T07:15:09Z</time>
      </trkpt>
      <trkpt lat="48.88428" lon="1.38155">
        <ele>109.80000305176</ele>
        <time>2007-05-09T07:15:14Z</time>
      </trkpt>
      <trkpt lat="48.88439" lon="1.38148">
        <ele>111.59999847412</ele>
        <time>2007-05-09T07:15:17Z</time>
      </trkpt>
      <trkpt lat="48.88461" lon="1.38137">
        <ele>115.59999847412</ele>
        <time>2007-05-09T07:15:24Z</time>
      </trkpt>
      <trkpt lat="48.885" lon="1.38122">
        <ele>121.80000305176</ele>
        <time>2007-05-09T07:15:35Z</time>
      </trkpt>
      <trkpt lat="48.88529" lon="1.38108">
        <ele>123.80000305176</ele>
        <time>2007-05-09T07:15:43Z</time>
      </trkpt>
      <trkpt lat="48.88558" lon="1.38085">
        <ele>126.19999694824</ele>
        <time>2007-05-09T07:15:51Z</time>
      </trkpt>
      <trkpt lat="48.88572" lon="1.38075">
        <ele>127.59999847412</ele>
        <time>2007-05-09T07:15:56Z</time>
      </trkpt>
      <trkpt lat="48.88594" lon="1.38073">
        <ele>129.19999694824</ele>
        <time>2007-05-09T07:16:02Z</time>
      </trkpt>
      <trkpt lat="48.88612" lon="1.38095">
        <ele>129.60000610352</ele>
        <time>2007-05-09T07:16:08Z</time>
      </trkpt>
      <trkpt lat="48.88644" lon="1.38091">
        <ele>130.39999389648</ele>
        <time>2007-05-09T07:16:17Z</time>
      </trkpt>
      <trkpt lat="48.88667" lon="1.38104">
        <ele>130.60000610352</ele>
        <time>2007-05-09T07:16:24Z</time>
      </trkpt>
      <trkpt lat="48.88704" lon="1.38126">
        <ele>130.39999389648</ele>
        <time>2007-05-09T07:16:35Z</time>
      </trkpt>
      <trkpt lat="48.88747" lon="1.38161">
        <ele>130</ele>
        <time>2007-05-09T07:16:48Z</time>
      </trkpt>
      <trkpt lat="48.88769" lon="1.382">
        <ele>129</ele>
        <time>2007-05-09T07:16:57Z</time>
      </trkpt>
      <trkpt lat="48.88766" lon="1.38231">
        <ele>128.60000610352</ele>
        <time>2007-05-09T07:17:03Z</time>
      </trkpt>
      <trkpt lat="48.88755" lon="1.38265">
        <ele>128.80000305176</ele>
        <time>2007-05-09T07:17:10Z</time>
      </trkpt>
      <trkpt lat="48.88745" lon="1.38323">
        <ele>129</ele>
        <time>2007-05-09T07:17:20Z</time>
      </trkpt>
      <trkpt lat="48.88753" lon="1.38364">
        <ele>128.39999389648</ele>
        <time>2007-05-09T07:17:28Z</time>
      </trkpt>
      <trkpt lat="48.88771" lon="1.38407">
        <ele>126.80000305176</ele>
        <time>2007-05-09T07:17:37Z</time>
      </trkpt>
      <trkpt lat="48.88784" lon="1.38491">
        <ele>125</ele>
        <time>2007-05-09T07:17:54Z</time>
      </trkpt>
      <trkpt lat="48.88764" lon="1.38525">
        <ele>125</ele>
        <time>2007-05-09T07:18:02Z</time>
      </trkpt>
      <trkpt lat="48.88746" lon="1.38563">
        <ele>124.19999694824</ele>
        <time>2007-05-09T07:18:10Z</time>
      </trkpt>
      <trkpt lat="48.88725" lon="1.38603">
        <ele>123.59999847412</ele>
        <time>2007-05-09T07:18:19Z</time>
      </trkpt>
      <trkpt lat="48.8871" lon="1.38617">
        <ele>123.80000305176</ele>
        <time>2007-05-09T07:18:24Z</time>
      </trkpt>
      <trkpt lat="48.88687" lon="1.38645">
        <ele>123.80000305176</ele>
        <time>2007-05-09T07:18:32Z</time>
      </trkpt>
      <trkpt lat="48.88657" lon="1.38723">
        <ele>120.80000305176</ele>
        <time>2007-05-09T07:18:48Z</time>
      </trkpt>
      <trkpt lat="48.88651" lon="1.38766">
        <ele>118.40000152588</ele>
        <time>2007-05-09T07:18:56Z</time>
      </trkpt>
      <trkpt lat="48.88636" lon="1.38851">
        <ele>114</ele>
        <time>2007-05-09T07:19:11Z</time>
      </trkpt>
      <trkpt lat="48.88631" lon="1.38869">
        <ele>113</ele>
        <time>2007-05-09T07:19:15Z</time>
      </trkpt>
      <trkpt lat="48.88622" lon="1.38903">
        <ele>111.19999694824</ele>
        <time>2007-05-09T07:19:21Z</time>
      </trkpt>
      <trkpt lat="48.88616" lon="1.38927">
        <ele>110</ele>
        <time>2007-05-09T07:19:26Z</time>
      </trkpt>
      <trkpt lat="48.88605" lon="1.38976">
        <ele>108.40000152588</ele>
        <time>2007-05-09T07:19:35Z</time>
      </trkpt>
      <trkpt lat="48.88594" lon="1.38997">
        <ele>107.40000152588</ele>
        <time>2007-05-09T07:19:40Z</time>
      </trkpt>
      <trkpt lat="48.88562" lon="1.3903">
        <ele>104.40000152588</ele>
        <time>2007-05-09T07:19:50Z</time>
      </trkpt>
      <trkpt lat="48.88547" lon="1.39016">
        <ele>103.19999694824</ele>
        <time>2007-05-09T07:19:56Z</time>
      </trkpt>
      <trkpt lat="48.88532" lon="1.38968">
        <ele>101.40000152588</ele>
        <time>2007-05-09T07:20:05Z</time>
      </trkpt>
      <trkpt lat="48.88492" lon="1.38959">
        <ele>98</ele>
        <time>2007-05-09T07:20:16Z</time>
      </trkpt>
      <trkpt lat="48.8848" lon="1.38963">
        <ele>98.800003051758</ele>
        <time>2007-05-09T07:20:20Z</time>
      </trkpt>
      <trkpt lat="48.88461" lon="1.38971">
        <ele>100</ele>
        <time>2007-05-09T07:20:25Z</time>
      </trkpt>
      <trkpt lat="48.88458" lon="1.38966">
        <ele>100.19999694824</ele>
        <time>2007-05-09T07:20:26Z</time>
      </trkpt>
      <trkpt lat="48.88439" lon="1.38928">
        <ele>102</ele>
        <time>2007-05-09T07:20:35Z</time>
      </trkpt>
      <trkpt lat="48.88426" lon="1.38914">
        <ele>103.19999694824</ele>
        <time>2007-05-09T07:20:39Z</time>
      </trkpt>
      <trkpt lat="48.88408" lon="1.38903">
        <ele>104.40000152588</ele>
        <time>2007-05-09T07:20:44Z</time>
      </trkpt>
      <trkpt lat="48.88398" lon="1.38897">
        <ele>104.80000305176</ele>
        <time>2007-05-09T07:20:47Z</time>
      </trkpt>
      <trkpt lat="48.88376" lon="1.3888">
        <ele>106.59999847412</ele>
        <time>2007-05-09T07:20:53Z</time>
      </trkpt>
      <trkpt lat="48.88366" lon="1.38873">
        <ele>107.40000152588</ele>
        <time>2007-05-09T07:20:56Z</time>
      </trkpt>
      <trkpt lat="48.88346" lon="1.38861">
        <ele>109.59999847412</ele>
        <time>2007-05-09T07:21:02Z</time>
      </trkpt>
      <trkpt lat="48.88333" lon="1.38851">
        <ele>111.19999694824</ele>
        <time>2007-05-09T07:21:06Z</time>
      </trkpt>
      <trkpt lat="48.88312" lon="1.38838">
        <ele>114.19999694824</ele>
        <time>2007-05-09T07:21:12Z</time>
      </trkpt>
      <trkpt lat="48.8829" lon="1.38818">
        <ele>116.40000152588</ele>
        <time>2007-05-09T07:21:19Z</time>
      </trkpt>
      <trkpt lat="48.88256" lon="1.38792">
        <ele>118.59999847412</ele>
        <time>2007-05-09T07:21:29Z</time>
      </trkpt>
      <trkpt lat="48.88231" lon="1.38771">
        <ele>120.59999847412</ele>
        <time>2007-05-09T07:21:37Z</time>
      </trkpt>
      <trkpt lat="48.88175" lon="1.38724">
        <ele>127.80000305176</ele>
        <time>2007-05-09T07:21:54Z</time>
      </trkpt>
      <trkpt lat="48.88157" lon="1.38707">
        <ele>129.39999389648</ele>
        <time>2007-05-09T07:21:59Z</time>
      </trkpt>
      <trkpt lat="48.88129" lon="1.38681">
        <ele>130.39999389648</ele>
        <time>2007-05-09T07:22:08Z</time>
      </trkpt>
      <trkpt lat="48.88092" lon="1.38652">
        <ele>131.80000305176</ele>
        <time>2007-05-09T07:22:19Z</time>
      </trkpt>
      <trkpt lat="48.88063" lon="1.38633">
        <ele>132.60000610352</ele>
        <time>2007-05-09T07:22:27Z</time>
      </trkpt>
      <trkpt lat="48.88034" lon="1.38615">
        <ele>133</ele>
        <time>2007-05-09T07:22:36Z</time>
      </trkpt>
      <trkpt lat="48.8802" lon="1.38603">
        <ele>133.19999694824</ele>
        <time>2007-05-09T07:22:40Z</time>
      </trkpt>
      <trkpt lat="48.88002" lon="1.38588">
        <ele>133</ele>
        <time>2007-05-09T07:22:46Z</time>
      </trkpt>
      <trkpt lat="48.87958" lon="1.38552">
        <ele>132.19999694824</ele>
        <time>2007-05-09T07:22:59Z</time>
      </trkpt>
      <trkpt lat="48.87931" lon="1.3853">
        <ele>131.80000305176</ele>
        <time>2007-05-09T07:23:07Z</time>
      </trkpt>
      <trkpt lat="48.87913" lon="1.38505">
        <ele>132</ele>
        <time>2007-05-09T07:23:13Z</time>
      </trkpt>
      <trkpt lat="48.87874" lon="1.38477">
        <ele>133</ele>
        <time>2007-05-09T07:23:25Z</time>
      </trkpt>
      <trkpt lat="48.87861" lon="1.38472">
        <ele>133.19999694824</ele>
        <time>2007-05-09T07:23:28Z</time>
      </trkpt>
      <trkpt lat="48.87836" lon="1.38451">
        <ele>133.39999389648</ele>
        <time>2007-05-09T07:23:36Z</time>
      </trkpt>
      <trkpt lat="48.8782" lon="1.38442">
        <ele>133.19999694824</ele>
        <time>2007-05-09T07:23:41Z</time>
      </trkpt>
      <trkpt lat="48.87787" lon="1.38409">
        <ele>132.60000610352</ele>
        <time>2007-05-09T07:23:51Z</time>
      </trkpt>
      <trkpt lat="48.8777" lon="1.38396">
        <ele>132.60000610352</ele>
        <time>2007-05-09T07:23:56Z</time>
      </trkpt>
      <trkpt lat="48.87747" lon="1.38381">
        <ele>133</ele>
        <time>2007-05-09T07:24:03Z</time>
      </trkpt>
      <trkpt lat="48.87726" lon="1.38367">
        <ele>133.39999389648</ele>
        <time>2007-05-09T07:24:09Z</time>
      </trkpt>
      <trkpt lat="48.87695" lon="1.38343">
        <ele>134</ele>
        <time>2007-05-09T07:24:18Z</time>
      </trkpt>
      <trkpt lat="48.87661" lon="1.38319">
        <ele>134</ele>
        <time>2007-05-09T07:24:28Z</time>
      </trkpt>
      <trkpt lat="48.87645" lon="1.38301">
        <ele>134.39999389648</ele>
        <time>2007-05-09T07:24:34Z</time>
      </trkpt>
      <trkpt lat="48.87624" lon="1.38285">
        <ele>135</ele>
        <time>2007-05-09T07:24:40Z</time>
      </trkpt>
      <trkpt lat="48.87593" lon="1.38258">
        <ele>135.80000305176</ele>
        <time>2007-05-09T07:24:49Z</time>
      </trkpt>
      <trkpt lat="48.8759" lon="1.38216">
        <ele>134.60000610352</ele>
        <time>2007-05-09T07:24:57Z</time>
      </trkpt>
      <trkpt lat="48.87575" lon="1.38139">
        <ele>133</ele>
        <time>2007-05-09T07:25:11Z</time>
      </trkpt>
      <trkpt lat="48.87575" lon="1.38107">
        <ele>133</ele>
        <time>2007-05-09T07:25:17Z</time>
      </trkpt>
      <trkpt lat="48.87566" lon="1.38046">
        <ele>132.80000305176</ele>
        <time>2007-05-09T07:25:28Z</time>
      </trkpt>
      <trkpt lat="48.87535" lon="1.37963">
        <ele>131.19999694824</ele>
        <time>2007-05-09T07:25:45Z</time>
      </trkpt>
      <trkpt lat="48.87508" lon="1.37921">
        <ele>129.39999389648</ele>
        <time>2007-05-09T07:25:55Z</time>
      </trkpt>
      <trkpt lat="48.87496" lon="1.37903">
        <ele>127.80000305176</ele>
        <time>2007-05-09T07:25:59Z</time>
      </trkpt>
      <trkpt lat="48.87476" lon="1.37854">
        <ele>122</ele>
        <time>2007-05-09T07:26:09Z</time>
      </trkpt>
      <trkpt lat="48.87466" lon="1.37823">
        <ele>119.19999694824</ele>
        <time>2007-05-09T07:26:16Z</time>
      </trkpt>
      <trkpt lat="48.87455" lon="1.37775">
        <ele>116.40000152588</ele>
        <time>2007-05-09T07:26:25Z</time>
      </trkpt>
      <trkpt lat="48.87447" lon="1.37742">
        <ele>114.59999847412</ele>
        <time>2007-05-09T07:26:31Z</time>
      </trkpt>
      <trkpt lat="48.87434" lon="1.37718">
        <ele>112.19999694824</ele>
        <time>2007-05-09T07:26:36Z</time>
      </trkpt>
      <trkpt lat="48.87419" lon="1.37693">
        <ele>109.19999694824</ele>
        <time>2007-05-09T07:26:42Z</time>
      </trkpt>
      <trkpt lat="48.874" lon="1.37648">
        <ele>104.59999847412</ele>
        <time>2007-05-09T07:26:52Z</time>
      </trkpt>
      <trkpt lat="48.87388" lon="1.37603">
        <ele>101.80000305176</ele>
        <time>2007-05-09T07:27:00Z</time>
      </trkpt>
      <trkpt lat="48.87376" lon="1.37576">
        <ele>99.199996948242</ele>
        <time>2007-05-09T07:27:06Z</time>
      </trkpt>
      <trkpt lat="48.87352" lon="1.37554">
        <ele>93.599998474121</ele>
        <time>2007-05-09T07:27:14Z</time>
      </trkpt>
      <trkpt lat="48.87324" lon="1.37528">
        <ele>88.800003051758</ele>
        <time>2007-05-09T07:27:22Z</time>
      </trkpt>
      <trkpt lat="48.873" lon="1.3748">
        <ele>87.199996948242</ele>
        <time>2007-05-09T07:27:33Z</time>
      </trkpt>
      <trkpt lat="48.8728" lon="1.3745">
        <ele>84.400001525879</ele>
        <time>2007-05-09T07:27:41Z</time>
      </trkpt>
      <trkpt lat="48.87266" lon="1.37431">
        <ele>82.199996948242</ele>
        <time>2007-05-09T07:27:46Z</time>
      </trkpt>
      <trkpt lat="48.87238" lon="1.37381">
        <ele>79.400001525879</ele>
        <time>2007-05-09T07:27:57Z</time>
      </trkpt>
      <trkpt lat="48.87234" lon="1.37368">
        <ele>79.400001525879</ele>
        <time>2007-05-09T07:28:00Z</time>
      </trkpt>
      <trkpt lat="48.87224" lon="1.37335">
        <ele>79.400001525879</ele>
        <time>2007-05-09T07:28:06Z</time>
      </trkpt>
      <trkpt lat="48.87205" lon="1.3727">
        <ele>79</ele>
        <time>2007-05-09T07:28:18Z</time>
      </trkpt>
      <trkpt lat="48.87199" lon="1.37246">
        <ele>79</ele>
        <time>2007-05-09T07:28:24Z</time>
      </trkpt>
      <trkpt lat="48.87199" lon="1.37229">
        <ele>78.800003051758</ele>
        <time>2007-05-09T07:28:27Z</time>
      </trkpt>
      <trkpt lat="48.87191" lon="1.37187">
        <ele>78.400001525879</ele>
        <time>2007-05-09T07:28:34Z</time>
      </trkpt>
      <trkpt lat="48.87185" lon="1.37117">
        <ele>79</ele>
        <time>2007-05-09T07:28:47Z</time>
      </trkpt>
      <trkpt lat="48.87165" lon="1.37104">
        <ele>79.800003051758</ele>
        <time>2007-05-09T07:28:53Z</time>
      </trkpt>
      <trkpt lat="48.87145" lon="1.37096">
        <ele>80.400001525879</ele>
        <time>2007-05-09T07:28:58Z</time>
      </trkpt>
      <trkpt lat="48.87119" lon="1.37089">
        <ele>81</ele>
        <time>2007-05-09T07:29:05Z</time>
      </trkpt>
      <trkpt lat="48.87076" lon="1.37077">
        <ele>83.199996948242</ele>
        <time>2007-05-09T07:29:17Z</time>
      </trkpt>
      <trkpt lat="48.87036" lon="1.37055">
        <ele>87.800003051758</ele>
        <time>2007-05-09T07:29:28Z</time>
      </trkpt>
      <trkpt lat="48.87012" lon="1.37046">
        <ele>89.800003051758</ele>
        <time>2007-05-09T07:29:36Z</time>
      </trkpt>
      <trkpt lat="48.87018" lon="1.37087">
        <ele>92.400001525879</ele>
        <time>2007-05-09T07:29:44Z</time>
      </trkpt>
      <trkpt lat="48.87016" lon="1.37142">
        <ele>96.400001525879</ele>
        <time>2007-05-09T07:29:54Z</time>
      </trkpt>
      <trkpt lat="48.87016" lon="1.37155">
        <ele>97.199996948242</ele>
        <time>2007-05-09T07:29:57Z</time>
      </trkpt>
      <trkpt lat="48.8701" lon="1.37164">
        <ele>99.400001525879</ele>
        <time>2007-05-09T07:29:59Z</time>
      </trkpt>
      <trkpt lat="48.87004" lon="1.37164">
        <ele>100.80000305176</ele>
        <time>2007-05-09T07:30:01Z</time>
      </trkpt>
      <trkpt lat="48.86992" lon="1.37153">
        <ele>103</ele>
        <time>2007-05-09T07:30:05Z</time>
      </trkpt>
      <trkpt lat="48.86982" lon="1.37142">
        <ele>104.19999694824</ele>
        <time>2007-05-09T07:30:08Z</time>
      </trkpt>
      <trkpt lat="48.86975" lon="1.37129">
        <ele>105</ele>
        <time>2007-05-09T07:30:11Z</time>
      </trkpt>
      <trkpt lat="48.86963" lon="1.3712">
        <ele>107.19999694824</ele>
        <time>2007-05-09T07:30:15Z</time>
      </trkpt>
      <trkpt lat="48.86952" lon="1.37115">
        <ele>109.40000152588</ele>
        <time>2007-05-09T07:30:18Z</time>
      </trkpt>
      <trkpt lat="48.8694" lon="1.37107">
        <ele>111.59999847412</ele>
        <time>2007-05-09T07:30:21Z</time>
      </trkpt>
      <trkpt lat="48.86906" lon="1.37083">
        <ele>116.19999694824</ele>
        <time>2007-05-09T07:30:32Z</time>
      </trkpt>
      <trkpt lat="48.86858" lon="1.3705">
        <ele>117.40000152588</ele>
        <time>2007-05-09T07:30:46Z</time>
      </trkpt>
      <trkpt lat="48.86823" lon="1.37011">
        <ele>117</ele>
        <time>2007-05-09T07:30:57Z</time>
      </trkpt>
      <trkpt lat="48.86806" lon="1.36998">
        <ele>117.59999847412</ele>
        <time>2007-05-09T07:31:02Z</time>
      </trkpt>
      <trkpt lat="48.86791" lon="1.36991">
        <ele>119</ele>
        <time>2007-05-09T07:31:06Z</time>
      </trkpt>
      <trkpt lat="48.86781" lon="1.36984">
        <ele>119.80000305176</ele>
        <time>2007-05-09T07:31:09Z</time>
      </trkpt>
      <trkpt lat="48.8676" lon="1.36953">
        <ele>120.19999694824</ele>
        <time>2007-05-09T07:31:17Z</time>
      </trkpt>
      <trkpt lat="48.86751" lon="1.36943">
        <ele>121.19999694824</ele>
        <time>2007-05-09T07:31:20Z</time>
      </trkpt>
      <trkpt lat="48.8674" lon="1.36932">
        <ele>121.59999847412</ele>
        <time>2007-05-09T07:31:24Z</time>
      </trkpt>
      <trkpt lat="48.8673" lon="1.3692">
        <ele>122.40000152588</ele>
        <time>2007-05-09T07:31:27Z</time>
      </trkpt>
      <trkpt lat="48.86706" lon="1.36905">
        <ele>125.19999694824</ele>
        <time>2007-05-09T07:31:34Z</time>
      </trkpt>
      <trkpt lat="48.86679" lon="1.36876">
        <ele>128.60000610352</ele>
        <time>2007-05-09T07:31:43Z</time>
      </trkpt>
      <trkpt lat="48.86646" lon="1.36859">
        <ele>131.19999694824</ele>
        <time>2007-05-09T07:31:52Z</time>
      </trkpt>
      <trkpt lat="48.86613" lon="1.36835">
        <ele>132</ele>
        <time>2007-05-09T07:32:02Z</time>
      </trkpt>
      <trkpt lat="48.86603" lon="1.36828">
        <ele>132.19999694824</ele>
        <time>2007-05-09T07:32:05Z</time>
      </trkpt>
      <trkpt lat="48.86574" lon="1.36803">
        <ele>133</ele>
        <time>2007-05-09T07:32:13Z</time>
      </trkpt>
      <trkpt lat="48.86556" lon="1.36785">
        <ele>132.80000305176</ele>
        <time>2007-05-09T07:32:19Z</time>
      </trkpt>
      <trkpt lat="48.86536" lon="1.36738">
        <ele>133</ele>
        <time>2007-05-09T07:32:29Z</time>
      </trkpt>
      <trkpt lat="48.86542" lon="1.36699">
        <ele>132.60000610352</ele>
        <time>2007-05-09T07:32:36Z</time>
      </trkpt>
      <trkpt lat="48.86556" lon="1.36662">
        <ele>131.39999389648</ele>
        <time>2007-05-09T07:32:44Z</time>
      </trkpt>
      <trkpt lat="48.86569" lon="1.36624">
        <ele>126.59999847412</ele>
        <time>2007-05-09T07:32:51Z</time>
      </trkpt>
      <trkpt lat="48.86587" lon="1.36574">
        <ele>118</ele>
        <time>2007-05-09T07:33:02Z</time>
      </trkpt>
      <trkpt lat="48.86595" lon="1.36556">
        <ele>114</ele>
        <time>2007-05-09T07:33:05Z</time>
      </trkpt>
      <trkpt lat="48.86612" lon="1.36523">
        <ele>106.59999847412</ele>
        <time>2007-05-09T07:33:13Z</time>
      </trkpt>
      <trkpt lat="48.86621" lon="1.36499">
        <ele>102</ele>
        <time>2007-05-09T07:33:18Z</time>
      </trkpt>
      <trkpt lat="48.86637" lon="1.36468">
        <ele>99.800003051758</ele>
        <time>2007-05-09T07:33:25Z</time>
      </trkpt>
      <trkpt lat="48.86654" lon="1.36409">
        <ele>101</ele>
        <time>2007-05-09T07:33:36Z</time>
      </trkpt>
      <trkpt lat="48.86656" lon="1.36392">
        <ele>102.59999847412</ele>
        <time>2007-05-09T07:33:39Z</time>
      </trkpt>
      <trkpt lat="48.8666" lon="1.36381">
        <ele>104</ele>
        <time>2007-05-09T07:33:42Z</time>
      </trkpt>
      <trkpt lat="48.86663" lon="1.36368">
        <ele>105.80000305176</ele>
        <time>2007-05-09T07:33:44Z</time>
      </trkpt>
      <trkpt lat="48.86672" lon="1.3635">
        <ele>109</ele>
        <time>2007-05-09T07:33:48Z</time>
      </trkpt>
      <trkpt lat="48.86681" lon="1.36328">
        <ele>112.40000152588</ele>
        <time>2007-05-09T07:33:53Z</time>
      </trkpt>
      <trkpt lat="48.86689" lon="1.36298">
        <ele>115.19999694824</ele>
        <time>2007-05-09T07:33:58Z</time>
      </trkpt>
      <trkpt lat="48.867" lon="1.36269">
        <ele>118.19999694824</ele>
        <time>2007-05-09T07:34:04Z</time>
      </trkpt>
      <trkpt lat="48.86665" lon="1.36263">
        <ele>114.80000305176</ele>
        <time>2007-05-09T07:34:15Z</time>
      </trkpt>
      <trkpt lat="48.86637" lon="1.36246">
        <ele>108.59999847412</ele>
        <time>2007-05-09T07:34:23Z</time>
      </trkpt>
      <trkpt lat="48.86599" lon="1.36207">
        <ele>101.19999694824</ele>
        <time>2007-05-09T07:34:35Z</time>
      </trkpt>
      <trkpt lat="48.86577" lon="1.36165">
        <ele>99</ele>
        <time>2007-05-09T07:34:45Z</time>
      </trkpt>
      <trkpt lat="48.86564" lon="1.36117">
        <ele>100.40000152588</ele>
        <time>2007-05-09T07:34:54Z</time>
      </trkpt>
      <trkpt lat="48.86558" lon="1.36047">
        <ele>102.19999694824</ele>
        <time>2007-05-09T07:35:07Z</time>
      </trkpt>
      <trkpt lat="48.86556" lon="1.36029">
        <ele>102.80000305176</ele>
        <time>2007-05-09T07:35:10Z</time>
      </trkpt>
      <trkpt lat="48.86551" lon="1.3602">
        <ele>102.80000305176</ele>
        <time>2007-05-09T07:35:12Z</time>
      </trkpt>
      <trkpt lat="48.86541" lon="1.36033">
        <ele>102</ele>
        <time>2007-05-09T07:35:16Z</time>
      </trkpt>
      <trkpt lat="48.86517" lon="1.36049">
        <ele>100.59999847412</ele>
        <time>2007-05-09T07:35:23Z</time>
      </trkpt>
      <trkpt lat="48.86497" lon="1.36051">
        <ele>100.40000152588</ele>
        <time>2007-05-09T07:35:29Z</time>
      </trkpt>
      <trkpt lat="48.86487" lon="1.3602">
        <ele>103.80000305176</ele>
        <time>2007-05-09T07:35:35Z</time>
      </trkpt>
      <trkpt lat="48.86479" lon="1.35985">
        <ele>106</ele>
        <time>2007-05-09T07:35:41Z</time>
      </trkpt>
      <trkpt lat="48.86471" lon="1.35963">
        <ele>107.40000152588</ele>
        <time>2007-05-09T07:35:46Z</time>
      </trkpt>
      <trkpt lat="48.86466" lon="1.35941">
        <ele>108</ele>
        <time>2007-05-09T07:35:50Z</time>
      </trkpt>
      <trkpt lat="48.8645" lon="1.35913">
        <ele>110.40000152588</ele>
        <time>2007-05-09T07:35:57Z</time>
      </trkpt>
      <trkpt lat="48.86427" lon="1.35901">
        <ele>114</ele>
        <time>2007-05-09T07:36:03Z</time>
      </trkpt>
      <trkpt lat="48.86411" lon="1.35916">
        <ele>118.59999847412</ele>
        <time>2007-05-09T07:36:08Z</time>
      </trkpt>
      <trkpt lat="48.86394" lon="1.35925">
        <ele>121</ele>
        <time>2007-05-09T07:36:13Z</time>
      </trkpt>
      <trkpt lat="48.86379" lon="1.35928">
        <ele>123.19999694824</ele>
        <time>2007-05-09T07:36:17Z</time>
      </trkpt>
      <trkpt lat="48.86369" lon="1.3593">
        <ele>124.40000152588</ele>
        <time>2007-05-09T07:36:20Z</time>
      </trkpt>
      <trkpt lat="48.86353" lon="1.35909">
        <ele>125</ele>
        <time>2007-05-09T07:36:27Z</time>
      </trkpt>
      <trkpt lat="48.8636" lon="1.35881">
        <ele>121</ele>
        <time>2007-05-09T07:36:32Z</time>
      </trkpt>
      <trkpt lat="48.86381" lon="1.35842">
        <ele>113.59999847412</ele>
        <time>2007-05-09T07:36:41Z</time>
      </trkpt>
      <trkpt lat="48.86389" lon="1.35818">
        <ele>110</ele>
        <time>2007-05-09T07:36:46Z</time>
      </trkpt>
      <trkpt lat="48.864" lon="1.35787">
        <ele>106.40000152588</ele>
        <time>2007-05-09T07:36:52Z</time>
      </trkpt>
      <trkpt lat="48.86378" lon="1.35752">
        <ele>105.19999694824</ele>
        <time>2007-05-09T07:37:01Z</time>
      </trkpt>
      <trkpt lat="48.86355" lon="1.35736">
        <ele>105.59999847412</ele>
        <time>2007-05-09T07:37:08Z</time>
      </trkpt>
      <trkpt lat="48.86342" lon="1.3571">
        <ele>104.80000305176</ele>
        <time>2007-05-09T07:37:13Z</time>
      </trkpt>
      <trkpt lat="48.86303" lon="1.35677">
        <ele>105.59999847412</ele>
        <time>2007-05-09T07:37:25Z</time>
      </trkpt>
      <trkpt lat="48.86269" lon="1.35651">
        <ele>106.19999694824</ele>
        <time>2007-05-09T07:37:35Z</time>
      </trkpt>
      <trkpt lat="48.86245" lon="1.35633">
        <ele>105.80000305176</ele>
        <time>2007-05-09T07:37:43Z</time>
      </trkpt>
      <trkpt lat="48.86231" lon="1.35621">
        <ele>106</ele>
        <time>2007-05-09T07:37:47Z</time>
      </trkpt>
      <trkpt lat="48.86218" lon="1.35598">
        <ele>104.40000152588</ele>
        <time>2007-05-09T07:37:52Z</time>
      </trkpt>
      <trkpt lat="48.86206" lon="1.35579">
        <ele>103.59999847412</ele>
        <time>2007-05-09T07:37:57Z</time>
      </trkpt>
      <trkpt lat="48.86197" lon="1.35575">
        <ele>104.40000152588</ele>
        <time>2007-05-09T07:37:59Z</time>
      </trkpt>
      <trkpt lat="48.86187" lon="1.35555">
        <ele>104.19999694824</ele>
        <time>2007-05-09T07:38:04Z</time>
      </trkpt>
      <trkpt lat="48.8618" lon="1.3554">
        <ele>103.59999847412</ele>
        <time>2007-05-09T07:38:07Z</time>
      </trkpt>
      <trkpt lat="48.86153" lon="1.35485">
        <ele>103.40000152588</ele>
        <time>2007-05-09T07:38:19Z</time>
      </trkpt>
      <trkpt lat="48.86139" lon="1.35445">
        <ele>106.19999694824</ele>
        <time>2007-05-09T07:38:27Z</time>
      </trkpt>
      <trkpt lat="48.86134" lon="1.35373">
        <ele>107.40000152588</ele>
        <time>2007-05-09T07:38:40Z</time>
      </trkpt>
      <trkpt lat="48.86123" lon="1.35317">
        <ele>108.80000305176</ele>
        <time>2007-05-09T07:38:50Z</time>
      </trkpt>
      <trkpt lat="48.86113" lon="1.35271">
        <ele>109.19999694824</ele>
        <time>2007-05-09T07:38:58Z</time>
      </trkpt>
      <trkpt lat="48.86097" lon="1.35248">
        <ele>108.59999847412</ele>
        <time>2007-05-09T07:39:05Z</time>
      </trkpt>
      <trkpt lat="48.86081" lon="1.35246">
        <ele>108.59999847412</ele>
        <time>2007-05-09T07:39:09Z</time>
      </trkpt>
      <trkpt lat="48.86068" lon="1.35242">
        <ele>110.59999847412</ele>
        <time>2007-05-09T07:39:13Z</time>
      </trkpt>
      <trkpt lat="48.86052" lon="1.35235">
        <ele>113</ele>
        <time>2007-05-09T07:39:17Z</time>
      </trkpt>
      <trkpt lat="48.86049" lon="1.35221">
        <ele>113.19999694824</ele>
        <time>2007-05-09T07:39:21Z</time>
      </trkpt>
      <trkpt lat="48.86058" lon="1.35175">
        <ele>112.40000152588</ele>
        <time>2007-05-09T07:39:29Z</time>
      </trkpt>
      <trkpt lat="48.86075" lon="1.3512">
        <ele>112</ele>
        <time>2007-05-09T07:39:40Z</time>
      </trkpt>
      <trkpt lat="48.86084" lon="1.35105">
        <ele>112.19999694824</ele>
        <time>2007-05-09T07:39:44Z</time>
      </trkpt>
      <trkpt lat="48.86089" lon="1.3509">
        <ele>113.40000152588</ele>
        <time>2007-05-09T07:39:47Z</time>
      </trkpt>
      <trkpt lat="48.86098" lon="1.35079">
        <ele>114.80000305176</ele>
        <time>2007-05-09T07:39:50Z</time>
      </trkpt>
      <trkpt lat="48.86104" lon="1.3507">
        <ele>115.80000305176</ele>
        <time>2007-05-09T07:39:52Z</time>
      </trkpt>
      <trkpt lat="48.86118" lon="1.35052">
        <ele>117.59999847412</ele>
        <time>2007-05-09T07:39:57Z</time>
      </trkpt>
      <trkpt lat="48.8614" lon="1.35033">
        <ele>119.19999694824</ele>
        <time>2007-05-09T07:40:04Z</time>
      </trkpt>
      <trkpt lat="48.86158" lon="1.35037">
        <ele>120.40000152588</ele>
        <time>2007-05-09T07:40:09Z</time>
      </trkpt>
      <trkpt lat="48.86199" lon="1.35005">
        <ele>121.59999847412</ele>
        <time>2007-05-09T07:40:22Z</time>
      </trkpt>
      <trkpt lat="48.86247" lon="1.34952">
        <ele>123.80000305176</ele>
        <time>2007-05-09T07:40:38Z</time>
      </trkpt>
      <trkpt lat="48.86284" lon="1.34914">
        <ele>125.19999694824</ele>
        <time>2007-05-09T07:40:50Z</time>
      </trkpt>
      <trkpt lat="48.86313" lon="1.3488">
        <ele>126.59999847412</ele>
        <time>2007-05-09T07:41:00Z</time>
      </trkpt>
      <trkpt lat="48.86324" lon="1.34868">
        <ele>127.19999694824</ele>
        <time>2007-05-09T07:41:03Z</time>
      </trkpt>
      <trkpt lat="48.86335" lon="1.34857">
        <ele>127.80000305176</ele>
        <time>2007-05-09T07:41:07Z</time>
      </trkpt>
      <trkpt lat="48.86351" lon="1.34839">
        <ele>128.19999694824</ele>
        <time>2007-05-09T07:41:12Z</time>
      </trkpt>
      <trkpt lat="48.86384" lon="1.34799">
        <ele>128.80000305176</ele>
        <time>2007-05-09T07:41:24Z</time>
      </trkpt>
      <trkpt lat="48.86417" lon="1.34752">
        <ele>129</ele>
        <time>2007-05-09T07:41:35Z</time>
      </trkpt>
      <trkpt lat="48.86429" lon="1.34733">
        <ele>129</ele>
        <time>2007-05-09T07:41:40Z</time>
      </trkpt>
      <trkpt lat="48.86453" lon="1.34699">
        <ele>129.19999694824</ele>
        <time>2007-05-09T07:41:49Z</time>
      </trkpt>
      <trkpt lat="48.86478" lon="1.34668">
        <ele>129.80000305176</ele>
        <time>2007-05-09T07:41:58Z</time>
      </trkpt>
      <trkpt lat="48.86527" lon="1.34614">
        <ele>130.80000305176</ele>
        <time>2007-05-09T07:42:14Z</time>
      </trkpt>
      <trkpt lat="48.86554" lon="1.34579">
        <ele>131</ele>
        <time>2007-05-09T07:42:23Z</time>
      </trkpt>
      <trkpt lat="48.86575" lon="1.34557">
        <ele>131.19999694824</ele>
        <time>2007-05-09T07:42:30Z</time>
      </trkpt>
      <trkpt lat="48.86609" lon="1.34517">
        <ele>131.39999389648</ele>
        <time>2007-05-09T07:42:42Z</time>
      </trkpt>
      <trkpt lat="48.86637" lon="1.34493">
        <ele>131.39999389648</ele>
        <time>2007-05-09T07:42:50Z</time>
      </trkpt>
      <trkpt lat="48.86659" lon="1.34464">
        <ele>131</ele>
        <time>2007-05-09T07:42:58Z</time>
      </trkpt>
      <trkpt lat="48.86681" lon="1.34431">
        <ele>131.19999694824</ele>
        <time>2007-05-09T07:43:06Z</time>
      </trkpt>
      <trkpt lat="48.86695" lon="1.34382">
        <ele>131.60000610352</ele>
        <time>2007-05-09T07:43:16Z</time>
      </trkpt>
      <trkpt lat="48.86703" lon="1.34348">
        <ele>131.80000305176</ele>
        <time>2007-05-09T07:43:22Z</time>
      </trkpt>
      <trkpt lat="48.86709" lon="1.34324">
        <ele>132</ele>
        <time>2007-05-09T07:43:27Z</time>
      </trkpt>
      <trkpt lat="48.86715" lon="1.34297">
        <ele>131.80000305176</ele>
        <time>2007-05-09T07:43:32Z</time>
      </trkpt>
      <trkpt lat="48.8672" lon="1.34278">
        <ele>131.60000610352</ele>
        <time>2007-05-09T07:43:35Z</time>
      </trkpt>
      <trkpt lat="48.86738" lon="1.34207">
        <ele>132.60000610352</ele>
        <time>2007-05-09T07:43:49Z</time>
      </trkpt>
      <trkpt lat="48.86754" lon="1.34141">
        <ele>134.39999389648</ele>
        <time>2007-05-09T07:44:01Z</time>
      </trkpt>
      <trkpt lat="48.86761" lon="1.34108">
        <ele>135.19999694824</ele>
        <time>2007-05-09T07:44:07Z</time>
      </trkpt>
      <trkpt lat="48.86774" lon="1.34055">
        <ele>136.39999389648</ele>
        <time>2007-05-09T07:44:17Z</time>
      </trkpt>
      <trkpt lat="48.86782" lon="1.34023">
        <ele>137.19999694824</ele>
        <time>2007-05-09T07:44:23Z</time>
      </trkpt>
      <trkpt lat="48.86787" lon="1.34005">
        <ele>137.80000305176</ele>
        <time>2007-05-09T07:44:27Z</time>
      </trkpt>
      <trkpt lat="48.86795" lon="1.33962">
        <ele>138.39999389648</ele>
        <time>2007-05-09T07:44:35Z</time>
      </trkpt>
      <trkpt lat="48.86796" lon="1.33911">
        <ele>138.60000610352</ele>
        <time>2007-05-09T07:44:43Z</time>
      </trkpt>
      <trkpt lat="48.86793" lon="1.33876">
        <ele>137.60000610352</ele>
        <time>2007-05-09T07:44:50Z</time>
      </trkpt>
      <trkpt lat="48.86783" lon="1.33829">
        <ele>136</ele>
        <time>2007-05-09T07:44:58Z</time>
      </trkpt>
      <trkpt lat="48.86781" lon="1.3381">
        <ele>135.80000305176</ele>
        <time>2007-05-09T07:45:02Z</time>
      </trkpt>
      <trkpt lat="48.86783" lon="1.33777">
        <ele>135.80000305176</ele>
        <time>2007-05-09T07:45:07Z</time>
      </trkpt>
      <trkpt lat="48.86794" lon="1.33707">
        <ele>134.80000305176</ele>
        <time>2007-05-09T07:45:20Z</time>
      </trkpt>
      <trkpt lat="48.86799" lon="1.33678">
        <ele>134</ele>
        <time>2007-05-09T07:45:26Z</time>
      </trkpt>
      <trkpt lat="48.86804" lon="1.33623">
        <ele>132.60000610352</ele>
        <time>2007-05-09T07:45:35Z</time>
      </trkpt>
      <trkpt lat="48.86808" lon="1.33567">
        <ele>131.60000610352</ele>
        <time>2007-05-09T07:45:45Z</time>
      </trkpt>
      <trkpt lat="48.8681" lon="1.33496">
        <ele>131.19999694824</ele>
        <time>2007-05-09T07:45:58Z</time>
      </trkpt>
      <trkpt lat="48.86806" lon="1.33436">
        <ele>131.39999389648</ele>
        <time>2007-05-09T07:46:08Z</time>
      </trkpt>
      <trkpt lat="48.86803" lon="1.33385">
        <ele>131.60000610352</ele>
        <time>2007-05-09T07:46:17Z</time>
      </trkpt>
      <trkpt lat="48.86799" lon="1.33361">
        <ele>131.80000305176</ele>
        <time>2007-05-09T07:46:21Z</time>
      </trkpt>
      <trkpt lat="48.86794" lon="1.33336">
        <ele>132</ele>
        <time>2007-05-09T07:46:26Z</time>
      </trkpt>
      <trkpt lat="48.86792" lon="1.33302">
        <ele>132.80000305176</ele>
        <time>2007-05-09T07:46:32Z</time>
      </trkpt>
      <trkpt lat="48.86785" lon="1.33266">
        <ele>133.60000610352</ele>
        <time>2007-05-09T07:46:39Z</time>
      </trkpt>
      <trkpt lat="48.86776" lon="1.33218">
        <ele>133.80000305176</ele>
        <time>2007-05-09T07:46:47Z</time>
      </trkpt>
      <trkpt lat="48.86774" lon="1.33197">
        <ele>133.80000305176</ele>
        <time>2007-05-09T07:46:51Z</time>
      </trkpt>
      <trkpt lat="48.8676" lon="1.33154">
        <ele>133.19999694824</ele>
        <time>2007-05-09T07:46:59Z</time>
      </trkpt>
      <trkpt lat="48.8676" lon="1.33108">
        <ele>133</ele>
        <time>2007-05-09T07:47:08Z</time>
      </trkpt>
      <trkpt lat="48.86765" lon="1.33079">
        <ele>132.80000305176</ele>
        <time>2007-05-09T07:47:13Z</time>
      </trkpt>
      <trkpt lat="48.86775" lon="1.33046">
        <ele>132.19999694824</ele>
        <time>2007-05-09T07:47:19Z</time>
      </trkpt>
      <trkpt lat="48.86785" lon="1.33022">
        <ele>131.80000305176</ele>
        <time>2007-05-09T07:47:24Z</time>
      </trkpt>
      <trkpt lat="48.86797" lon="1.32989">
        <ele>131.60000610352</ele>
        <time>2007-05-09T07:47:31Z</time>
      </trkpt>
      <trkpt lat="48.86806" lon="1.32928">
        <ele>131.60000610352</ele>
        <time>2007-05-09T07:47:42Z</time>
      </trkpt>
      <trkpt lat="48.86811" lon="1.32894">
        <ele>131.80000305176</ele>
        <time>2007-05-09T07:47:48Z</time>
      </trkpt>
      <trkpt lat="48.86816" lon="1.3287">
        <ele>132</ele>
        <time>2007-05-09T07:47:52Z</time>
      </trkpt>
      <trkpt lat="48.8682" lon="1.3283">
        <ele>132.39999389648</ele>
        <time>2007-05-09T07:47:59Z</time>
      </trkpt>
      <trkpt lat="48.86824" lon="1.32782">
        <ele>132.19999694824</ele>
        <time>2007-05-09T07:48:08Z</time>
      </trkpt>
      <trkpt lat="48.86829" lon="1.3274">
        <ele>132.19999694824</ele>
        <time>2007-05-09T07:48:15Z</time>
      </trkpt>
      <trkpt lat="48.86833" lon="1.32701">
        <ele>133.19999694824</ele>
        <time>2007-05-09T07:48:22Z</time>
      </trkpt>
      <trkpt lat="48.86836" lon="1.32678">
        <ele>133.80000305176</ele>
        <time>2007-05-09T07:48:26Z</time>
      </trkpt>
      <trkpt lat="48.86844" lon="1.32644">
        <ele>134</ele>
        <time>2007-05-09T07:48:33Z</time>
      </trkpt>
      <trkpt lat="48.86859" lon="1.32604">
        <ele>133.80000305176</ele>
        <time>2007-05-09T07:48:41Z</time>
      </trkpt>
      <trkpt lat="48.86869" lon="1.32564">
        <ele>133.60000610352</ele>
        <time>2007-05-09T07:48:49Z</time>
      </trkpt>
      <trkpt lat="48.86875" lon="1.32517">
        <ele>133.60000610352</ele>
        <time>2007-05-09T07:48:57Z</time>
      </trkpt>
      <trkpt lat="48.8688" lon="1.32475">
        <ele>133.39999389648</ele>
        <time>2007-05-09T07:49:04Z</time>
      </trkpt>
      <trkpt lat="48.86882" lon="1.32436">
        <ele>133.19999694824</ele>
        <time>2007-05-09T07:49:11Z</time>
      </trkpt>
      <trkpt lat="48.86888" lon="1.32393">
        <ele>133.19999694824</ele>
        <time>2007-05-09T07:49:19Z</time>
      </trkpt>
      <trkpt lat="48.86889" lon="1.32364">
        <ele>133.19999694824</ele>
        <time>2007-05-09T07:49:24Z</time>
      </trkpt>
      <trkpt lat="48.86894" lon="1.32326">
        <ele>133</ele>
        <time>2007-05-09T07:49:31Z</time>
      </trkpt>
      <trkpt lat="48.86895" lon="1.32273">
        <ele>132.60000610352</ele>
        <time>2007-05-09T07:49:40Z</time>
      </trkpt>
      <trkpt lat="48.86892" lon="1.3222">
        <ele>132.60000610352</ele>
        <time>2007-05-09T07:49:49Z</time>
      </trkpt>
      <trkpt lat="48.86891" lon="1.32188">
        <ele>132.60000610352</ele>
        <time>2007-05-09T07:49:55Z</time>
      </trkpt>
      <trkpt lat="48.8691" lon="1.32163">
        <ele>132.80000305176</ele>
        <time>2007-05-09T07:50:02Z</time>
      </trkpt>
      <trkpt lat="48.86926" lon="1.32148">
        <ele>132.60000610352</ele>
        <time>2007-05-09T07:50:07Z</time>
      </trkpt>
      <trkpt lat="48.86944" lon="1.32129">
        <ele>132.39999389648</ele>
        <time>2007-05-09T07:50:13Z</time>
      </trkpt>
      <trkpt lat="48.86965" lon="1.32101">
        <ele>132.39999389648</ele>
        <time>2007-05-09T07:50:21Z</time>
      </trkpt>
      <trkpt lat="48.86992" lon="1.32063">
        <ele>132.80000305176</ele>
        <time>2007-05-09T07:50:30Z</time>
      </trkpt>
      <trkpt lat="48.87011" lon="1.32026">
        <ele>133.39999389648</ele>
        <time>2007-05-09T07:50:39Z</time>
      </trkpt>
      <trkpt lat="48.87055" lon="1.31966">
        <ele>135.80000305176</ele>
        <time>2007-05-09T07:50:55Z</time>
      </trkpt>
      <trkpt lat="48.87081" lon="1.31924">
        <ele>137</ele>
        <time>2007-05-09T07:51:05Z</time>
      </trkpt>
      <trkpt lat="48.87104" lon="1.3189">
        <ele>137.60000610352</ele>
        <time>2007-05-09T07:51:13Z</time>
      </trkpt>
      <trkpt lat="48.8713" lon="1.3186">
        <ele>139</ele>
        <time>2007-05-09T07:51:22Z</time>
      </trkpt>
      <trkpt lat="48.87144" lon="1.31846">
        <ele>140</ele>
        <time>2007-05-09T07:51:26Z</time>
      </trkpt>
      <trkpt lat="48.87158" lon="1.31827">
        <ele>141.19999694824</ele>
        <time>2007-05-09T07:51:32Z</time>
      </trkpt>
      <trkpt lat="48.87185" lon="1.31785">
        <ele>141.39999389648</ele>
        <time>2007-05-09T07:51:42Z</time>
      </trkpt>
      <trkpt lat="48.87211" lon="1.31749">
        <ele>141.60000610352</ele>
        <time>2007-05-09T07:51:52Z</time>
      </trkpt>
      <trkpt lat="48.87215" lon="1.31733">
        <ele>141.19999694824</ele>
        <time>2007-05-09T07:51:55Z</time>
      </trkpt>
      <trkpt lat="48.8722" lon="1.31719">
        <ele>141.19999694824</ele>
        <time>2007-05-09T07:51:58Z</time>
      </trkpt>
      <trkpt lat="48.87237" lon="1.31722">
        <ele>142</ele>
        <time>2007-05-09T07:52:02Z</time>
      </trkpt>
      <trkpt lat="48.8727" lon="1.31732">
        <ele>142.39999389648</ele>
        <time>2007-05-09T07:52:11Z</time>
      </trkpt>
      <trkpt lat="48.87312" lon="1.31743">
        <ele>141.39999389648</ele>
        <time>2007-05-09T07:52:23Z</time>
      </trkpt>
      <trkpt lat="48.87326" lon="1.31701">
        <ele>140.60000610352</ele>
        <time>2007-05-09T07:52:31Z</time>
      </trkpt>
      <trkpt lat="48.8734" lon="1.31665">
        <ele>139.80000305176</ele>
        <time>2007-05-09T07:52:39Z</time>
      </trkpt>
      <trkpt lat="48.8735" lon="1.31635">
        <ele>139.60000610352</ele>
        <time>2007-05-09T07:52:45Z</time>
      </trkpt>
      <trkpt lat="48.87356" lon="1.31584">
        <ele>140.19999694824</ele>
        <time>2007-05-09T07:52:54Z</time>
      </trkpt>
      <trkpt lat="48.87358" lon="1.31552">
        <ele>140.19999694824</ele>
        <time>2007-05-09T07:52:59Z</time>
      </trkpt>
      <trkpt lat="48.87365" lon="1.31499">
        <ele>140.19999694824</ele>
        <time>2007-05-09T07:53:09Z</time>
      </trkpt>
      <trkpt lat="48.87369" lon="1.31467">
        <ele>140.80000305176</ele>
        <time>2007-05-09T07:53:15Z</time>
      </trkpt>
      <trkpt lat="48.8739" lon="1.31427">
        <ele>141.19999694824</ele>
        <time>2007-05-09T07:53:24Z</time>
      </trkpt>
      <trkpt lat="48.87404" lon="1.31386">
        <ele>140.39999389648</ele>
        <time>2007-05-09T07:53:32Z</time>
      </trkpt>
      <trkpt lat="48.87415" lon="1.31356">
        <ele>139.60000610352</ele>
        <time>2007-05-09T07:53:38Z</time>
      </trkpt>
      <trkpt lat="48.87419" lon="1.31315">
        <ele>138.80000305176</ele>
        <time>2007-05-09T07:53:45Z</time>
      </trkpt>
      <trkpt lat="48.87429" lon="1.3125">
        <ele>138.60000610352</ele>
        <time>2007-05-09T07:53:57Z</time>
      </trkpt>
      <trkpt lat="48.8744" lon="1.31176">
        <ele>139</ele>
        <time>2007-05-09T07:54:10Z</time>
      </trkpt>
      <trkpt lat="48.8745" lon="1.31126">
        <ele>140.39999389648</ele>
        <time>2007-05-09T07:54:20Z</time>
      </trkpt>
      <trkpt lat="48.87473" lon="1.31092">
        <ele>142.60000610352</ele>
        <time>2007-05-09T07:54:28Z</time>
      </trkpt>
      <trkpt lat="48.87478" lon="1.31065">
        <ele>143.39999389648</ele>
        <time>2007-05-09T07:54:33Z</time>
      </trkpt>
      <trkpt lat="48.87491" lon="1.30995">
        <ele>145.39999389648</ele>
        <time>2007-05-09T07:54:46Z</time>
      </trkpt>
      <trkpt lat="48.87497" lon="1.30955">
        <ele>146.39999389648</ele>
        <time>2007-05-09T07:54:53Z</time>
      </trkpt>
      <trkpt lat="48.87513" lon="1.30889">
        <ele>147</ele>
        <time>2007-05-09T07:55:06Z</time>
      </trkpt>
      <trkpt lat="48.8752" lon="1.30851">
        <ele>147.19999694824</ele>
        <time>2007-05-09T07:55:13Z</time>
      </trkpt>
      <trkpt lat="48.87533" lon="1.30795">
        <ele>147.19999694824</ele>
        <time>2007-05-09T07:55:24Z</time>
      </trkpt>
      <trkpt lat="48.87537" lon="1.30752">
        <ele>147.39999389648</ele>
        <time>2007-05-09T07:55:31Z</time>
      </trkpt>
      <trkpt lat="48.8756" lon="1.30693">
        <ele>146.60000610352</ele>
        <time>2007-05-09T07:55:43Z</time>
      </trkpt>
      <trkpt lat="48.87574" lon="1.30641">
        <ele>145.19999694824</ele>
        <time>2007-05-09T07:55:54Z</time>
      </trkpt>
      <trkpt lat="48.87576" lon="1.30619">
        <ele>144.39999389648</ele>
        <time>2007-05-09T07:55:58Z</time>
      </trkpt>
      <trkpt lat="48.87584" lon="1.30583">
        <ele>142.80000305176</ele>
        <time>2007-05-09T07:56:04Z</time>
      </trkpt>
      <trkpt lat="48.8759" lon="1.30545">
        <ele>141.60000610352</ele>
        <time>2007-05-09T07:56:11Z</time>
      </trkpt>
      <trkpt lat="48.87611" lon="1.30466">
        <ele>136.60000610352</ele>
        <time>2007-05-09T07:56:26Z</time>
      </trkpt>
      <trkpt lat="48.8762" lon="1.30404">
        <ele>132.80000305176</ele>
        <time>2007-05-09T07:56:38Z</time>
      </trkpt>
      <trkpt lat="48.8764" lon="1.30367">
        <ele>129</ele>
        <time>2007-05-09T07:56:46Z</time>
      </trkpt>
      <trkpt lat="48.87645" lon="1.30309">
        <ele>126.80000305176</ele>
        <time>2007-05-09T07:56:56Z</time>
      </trkpt>
      <trkpt lat="48.87656" lon="1.30255">
        <ele>124.40000152588</ele>
        <time>2007-05-09T07:57:07Z</time>
      </trkpt>
      <trkpt lat="48.87668" lon="1.30196">
        <ele>122</ele>
        <time>2007-05-09T07:57:18Z</time>
      </trkpt>
      <trkpt lat="48.87668" lon="1.30146">
        <ele>121.80000305176</ele>
        <time>2007-05-09T07:57:27Z</time>
      </trkpt>
      <trkpt lat="48.87677" lon="1.30102">
        <ele>124.40000152588</ele>
        <time>2007-05-09T07:57:35Z</time>
      </trkpt>
      <trkpt lat="48.87679" lon="1.30093">
        <ele>125</ele>
        <time>2007-05-09T07:57:37Z</time>
      </trkpt>
      <trkpt lat="48.8768" lon="1.30085">
        <ele>125.40000152588</ele>
        <time>2007-05-09T07:57:38Z</time>
      </trkpt>
      <trkpt lat="48.87683" lon="1.30081">
        <ele>126.19999694824</ele>
        <time>2007-05-09T07:57:39Z</time>
      </trkpt>
      <trkpt lat="48.87687" lon="1.30069">
        <ele>127.40000152588</ele>
        <time>2007-05-09T07:57:42Z</time>
      </trkpt>
      <trkpt lat="48.877" lon="1.30035">
        <ele>131</ele>
        <time>2007-05-09T07:57:49Z</time>
      </trkpt>
      <trkpt lat="48.87702" lon="1.30011">
        <ele>132.19999694824</ele>
        <time>2007-05-09T07:57:53Z</time>
      </trkpt>
      <trkpt lat="48.87711" lon="1.29983">
        <ele>135.19999694824</ele>
        <time>2007-05-09T07:57:59Z</time>
      </trkpt>
      <trkpt lat="48.87714" lon="1.29967">
        <ele>136.60000610352</ele>
        <time>2007-05-09T07:58:02Z</time>
      </trkpt>
      <trkpt lat="48.87722" lon="1.29946">
        <ele>139</ele>
        <time>2007-05-09T07:58:06Z</time>
      </trkpt>
      <trkpt lat="48.87726" lon="1.29926">
        <ele>140.80000305176</ele>
        <time>2007-05-09T07:58:10Z</time>
      </trkpt>
      <trkpt lat="48.8773" lon="1.29902">
        <ele>142.19999694824</ele>
        <time>2007-05-09T07:58:15Z</time>
      </trkpt>
      <trkpt lat="48.87735" lon="1.29873">
        <ele>143.19999694824</ele>
        <time>2007-05-09T07:58:20Z</time>
      </trkpt>
      <trkpt lat="48.87747" lon="1.29831">
        <ele>144.80000305176</ele>
        <time>2007-05-09T07:58:29Z</time>
      </trkpt>
      <trkpt lat="48.8774" lon="1.29814">
        <ele>143.80000305176</ele>
        <time>2007-05-09T07:58:32Z</time>
      </trkpt>
      <trkpt lat="48.87694" lon="1.2978">
        <ele>141.39999389648</ele>
        <time>2007-05-09T07:58:46Z</time>
      </trkpt>
      <trkpt lat="48.87659" lon="1.29757">
        <ele>140.19999694824</ele>
        <time>2007-05-09T07:58:56Z</time>
      </trkpt>
      <trkpt lat="48.8763" lon="1.29739">
        <ele>138</ele>
        <time>2007-05-09T07:59:04Z</time>
      </trkpt>
      <trkpt lat="48.87607" lon="1.29725">
        <ele>136.39999389648</ele>
        <time>2007-05-09T07:59:11Z</time>
      </trkpt>
      <trkpt lat="48.87586" lon="1.29711">
        <ele>135.19999694824</ele>
        <time>2007-05-09T07:59:17Z</time>
      </trkpt>
      <trkpt lat="48.87523" lon="1.2967">
        <ele>130.19999694824</ele>
        <time>2007-05-09T07:59:35Z</time>
      </trkpt>
      <trkpt lat="48.87499" lon="1.29657">
        <ele>128.39999389648</ele>
        <time>2007-05-09T07:59:42Z</time>
      </trkpt>
      <trkpt lat="48.87476" lon="1.29639">
        <ele>127</ele>
        <time>2007-05-09T07:59:49Z</time>
      </trkpt>
      <trkpt lat="48.87445" lon="1.29616">
        <ele>124.59999847412</ele>
        <time>2007-05-09T07:59:58Z</time>
      </trkpt>
      <trkpt lat="48.87431" lon="1.29608">
        <ele>123.40000152588</ele>
        <time>2007-05-09T08:00:02Z</time>
      </trkpt>
      <trkpt lat="48.87415" lon="1.29597">
        <ele>122.19999694824</ele>
        <time>2007-05-09T08:00:07Z</time>
      </trkpt>
      <trkpt lat="48.87399" lon="1.29588">
        <ele>125.19999694824</ele>
        <time>2007-05-09T08:00:11Z</time>
      </trkpt>
      <trkpt lat="48.87384" lon="1.29579">
        <ele>128</ele>
        <time>2007-05-09T08:00:16Z</time>
      </trkpt>
      <trkpt lat="48.87378" lon="1.29572">
        <ele>129.19999694824</ele>
        <time>2007-05-09T08:00:18Z</time>
      </trkpt>
      <trkpt lat="48.87373" lon="1.29571">
        <ele>130.19999694824</ele>
        <time>2007-05-09T08:00:19Z</time>
      </trkpt>
      <trkpt lat="48.87362" lon="1.29566">
        <ele>132.19999694824</ele>
        <time>2007-05-09T08:00:22Z</time>
      </trkpt>
      <trkpt lat="48.87351" lon="1.29556">
        <ele>134.19999694824</ele>
        <time>2007-05-09T08:00:25Z</time>
      </trkpt>
      <trkpt lat="48.87346" lon="1.29552">
        <ele>135.19999694824</ele>
        <time>2007-05-09T08:00:27Z</time>
      </trkpt>
      <trkpt lat="48.87336" lon="1.29544">
        <ele>137</ele>
        <time>2007-05-09T08:00:30Z</time>
      </trkpt>
      <trkpt lat="48.87326" lon="1.29538">
        <ele>137.60000610352</ele>
        <time>2007-05-09T08:00:33Z</time>
      </trkpt>
      <trkpt lat="48.87308" lon="1.29523">
        <ele>138</ele>
        <time>2007-05-09T08:00:38Z</time>
      </trkpt>
      <trkpt lat="48.87311" lon="1.29501">
        <ele>138.19999694824</ele>
        <time>2007-05-09T08:00:42Z</time>
      </trkpt>
      <trkpt lat="48.87329" lon="1.29472">
        <ele>137</ele>
        <time>2007-05-09T08:00:49Z</time>
      </trkpt>
      <trkpt lat="48.87353" lon="1.2945">
        <ele>133.19999694824</ele>
        <time>2007-05-09T08:00:57Z</time>
      </trkpt>
      <trkpt lat="48.87376" lon="1.29403">
        <ele>128.60000610352</ele>
        <time>2007-05-09T08:01:08Z</time>
      </trkpt>
      <trkpt lat="48.87374" lon="1.29359">
        <ele>128</ele>
        <time>2007-05-09T08:01:16Z</time>
      </trkpt>
      <trkpt lat="48.87374" lon="1.29326">
        <ele>127.40000152588</ele>
        <time>2007-05-09T08:01:22Z</time>
      </trkpt>
      <trkpt lat="48.87381" lon="1.29269">
        <ele>125.80000305176</ele>
        <time>2007-05-09T08:01:33Z</time>
      </trkpt>
      <trkpt lat="48.87398" lon="1.29269">
        <ele>125.40000152588</ele>
        <time>2007-05-09T08:01:38Z</time>
      </trkpt>
      <trkpt lat="48.87429" lon="1.29267">
        <ele>126.80000305176</ele>
        <time>2007-05-09T08:01:46Z</time>
      </trkpt>
      <trkpt lat="48.87429" lon="1.29248">
        <ele>127</ele>
        <time>2007-05-09T08:01:49Z</time>
      </trkpt>
      <trkpt lat="48.87427" lon="1.29234">
        <ele>126</ele>
        <time>2007-05-09T08:01:52Z</time>
      </trkpt>
      <trkpt lat="48.87441" lon="1.29203">
        <ele>126.59999847412</ele>
        <time>2007-05-09T08:01:59Z</time>
      </trkpt>
      <trkpt lat="48.87454" lon="1.29186">
        <ele>127.19999694824</ele>
        <time>2007-05-09T08:02:04Z</time>
      </trkpt>
      <trkpt lat="48.87471" lon="1.29161">
        <ele>127.40000152588</ele>
        <time>2007-05-09T08:02:10Z</time>
      </trkpt>
      <trkpt lat="48.87479" lon="1.29148">
        <ele>126.80000305176</ele>
        <time>2007-05-09T08:02:13Z</time>
      </trkpt>
      <trkpt lat="48.87499" lon="1.29138">
        <ele>127.40000152588</ele>
        <time>2007-05-09T08:02:19Z</time>
      </trkpt>
      <trkpt lat="48.87525" lon="1.29125">
        <ele>128.60000610352</ele>
        <time>2007-05-09T08:02:26Z</time>
      </trkpt>
      <trkpt lat="48.87557" lon="1.29106">
        <ele>129.80000305176</ele>
        <time>2007-05-09T08:02:36Z</time>
      </trkpt>
      <trkpt lat="48.87581" lon="1.29088">
        <ele>130.19999694824</ele>
        <time>2007-05-09T08:02:43Z</time>
      </trkpt>
      <trkpt lat="48.8761" lon="1.29059">
        <ele>129</ele>
        <time>2007-05-09T08:02:52Z</time>
      </trkpt>
      <trkpt lat="48.87635" lon="1.29048">
        <ele>129.39999389648</ele>
        <time>2007-05-09T08:02:59Z</time>
      </trkpt>
      <trkpt lat="48.87675" lon="1.29035">
        <ele>130.19999694824</ele>
        <time>2007-05-09T08:03:10Z</time>
      </trkpt>
      <trkpt lat="48.87689" lon="1.2904">
        <ele>132.19999694824</ele>
        <time>2007-05-09T08:03:15Z</time>
      </trkpt>
      <trkpt lat="48.87718" lon="1.29041">
        <ele>134.80000305176</ele>
        <time>2007-05-09T08:03:22Z</time>
      </trkpt>
      <trkpt lat="48.87749" lon="1.29056">
        <ele>139</ele>
        <time>2007-05-09T08:03:31Z</time>
      </trkpt>
      <trkpt lat="48.87761" lon="1.29064">
        <ele>140.39999389648</ele>
        <time>2007-05-09T08:03:35Z</time>
      </trkpt>
      <trkpt lat="48.87785" lon="1.29074">
        <ele>142.39999389648</ele>
        <time>2007-05-09T08:03:41Z</time>
      </trkpt>
      <trkpt lat="48.878" lon="1.29084">
        <ele>143.80000305176</ele>
        <time>2007-05-09T08:03:46Z</time>
      </trkpt>
      <trkpt lat="48.87838" lon="1.2911">
        <ele>145</ele>
        <time>2007-05-09T08:03:57Z</time>
      </trkpt>
      <trkpt lat="48.8787" lon="1.29123">
        <ele>143.80000305176</ele>
        <time>2007-05-09T08:04:06Z</time>
      </trkpt>
      <trkpt lat="48.87897" lon="1.29129">
        <ele>142.39999389648</ele>
        <time>2007-05-09T08:04:14Z</time>
      </trkpt>
      <trkpt lat="48.8792" lon="1.29057">
        <ele>141.39999389648</ele>
        <time>2007-05-09T08:04:29Z</time>
      </trkpt>
      <trkpt lat="48.87938" lon="1.29013">
        <ele>140.39999389648</ele>
        <time>2007-05-09T08:04:38Z</time>
      </trkpt>
      <trkpt lat="48.87944" lon="1.2898">
        <ele>140</ele>
        <time>2007-05-09T08:04:44Z</time>
      </trkpt>
      <trkpt lat="48.87942" lon="1.2896">
        <ele>140</ele>
        <time>2007-05-09T08:04:48Z</time>
      </trkpt>
      <trkpt lat="48.87915" lon="1.28921">
        <ele>140</ele>
        <time>2007-05-09T08:04:58Z</time>
      </trkpt>
      <trkpt lat="48.87897" lon="1.28894">
        <ele>138.39999389648</ele>
        <time>2007-05-09T08:05:05Z</time>
      </trkpt>
      <trkpt lat="48.87868" lon="1.28858">
        <ele>134.80000305176</ele>
        <time>2007-05-09T08:05:15Z</time>
      </trkpt>
      <trkpt lat="48.8786" lon="1.2884">
        <ele>133</ele>
        <time>2007-05-09T08:05:18Z</time>
      </trkpt>
      <trkpt lat="48.87839" lon="1.28789">
        <ele>128.39999389648</ele>
        <time>2007-05-09T08:05:29Z</time>
      </trkpt>
      <trkpt lat="48.87849" lon="1.28779">
        <ele>129.19999694824</ele>
        <time>2007-05-09T08:05:32Z</time>
      </trkpt>
      <trkpt lat="48.87859" lon="1.28755">
        <ele>129.19999694824</ele>
        <time>2007-05-09T08:05:37Z</time>
      </trkpt>
      <trkpt lat="48.87887" lon="1.28723">
        <ele>131.80000305176</ele>
        <time>2007-05-09T08:05:47Z</time>
      </trkpt>
      <trkpt lat="48.87906" lon="1.28704">
        <ele>133.60000610352</ele>
        <time>2007-05-09T08:05:53Z</time>
      </trkpt>
      <trkpt lat="48.87921" lon="1.28677">
        <ele>134.60000610352</ele>
        <time>2007-05-09T08:05:59Z</time>
      </trkpt>
      <trkpt lat="48.87922" lon="1.28661">
        <ele>134.39999389648</ele>
        <time>2007-05-09T08:06:03Z</time>
      </trkpt>
      <trkpt lat="48.87935" lon="1.28624">
        <ele>135.60000610352</ele>
        <time>2007-05-09T08:06:10Z</time>
      </trkpt>
      <trkpt lat="48.87929" lon="1.28606">
        <ele>135.39999389648</ele>
        <time>2007-05-09T08:06:15Z</time>
      </trkpt>
      <trkpt lat="48.87926" lon="1.28592">
        <ele>135.39999389648</ele>
        <time>2007-05-09T08:06:18Z</time>
      </trkpt>
      <trkpt lat="48.87918" lon="1.28568">
        <ele>135</ele>
        <time>2007-05-09T08:06:23Z</time>
      </trkpt>
      <trkpt lat="48.87913" lon="1.28555">
        <ele>134.80000305176</ele>
        <time>2007-05-09T08:06:25Z</time>
      </trkpt>
      <trkpt lat="48.8792" lon="1.28519">
        <ele>135.19999694824</ele>
        <time>2007-05-09T08:06:32Z</time>
      </trkpt>
      <trkpt lat="48.87924" lon="1.28502">
        <ele>135.19999694824</ele>
        <time>2007-05-09T08:06:35Z</time>
      </trkpt>
      <trkpt lat="48.87908" lon="1.28469">
        <ele>134.60000610352</ele>
        <time>2007-05-09T08:06:42Z</time>
      </trkpt>
      <trkpt lat="48.8789" lon="1.2842">
        <ele>133.80000305176</ele>
        <time>2007-05-09T08:06:52Z</time>
      </trkpt>
      <trkpt lat="48.8788" lon="1.28394">
        <ele>132.39999389648</ele>
        <time>2007-05-09T08:06:58Z</time>
      </trkpt>
      <trkpt lat="48.87862" lon="1.2839">
        <ele>131.60000610352</ele>
        <time>2007-05-09T08:07:03Z</time>
      </trkpt>
      <trkpt lat="48.87835" lon="1.28388">
        <ele>130.39999389648</ele>
        <time>2007-05-09T08:07:10Z</time>
      </trkpt>
      <trkpt lat="48.87828" lon="1.28384">
        <ele>130</ele>
        <time>2007-05-09T08:07:12Z</time>
      </trkpt>
      <trkpt lat="48.87811" lon="1.28355">
        <ele>128.39999389648</ele>
        <time>2007-05-09T08:07:19Z</time>
      </trkpt>
      <trkpt lat="48.87799" lon="1.28332">
        <ele>127.40000152588</ele>
        <time>2007-05-09T08:07:24Z</time>
      </trkpt>
      <trkpt lat="48.87803" lon="1.28321">
        <ele>127.40000152588</ele>
        <time>2007-05-09T08:07:27Z</time>
      </trkpt>
      <trkpt lat="48.87794" lon="1.28309">
        <ele>127</ele>
        <time>2007-05-09T08:07:30Z</time>
      </trkpt>
      <trkpt lat="48.87784" lon="1.28292">
        <ele>126.40000152588</ele>
        <time>2007-05-09T08:07:34Z</time>
      </trkpt>
      <trkpt lat="48.87794" lon="1.2827">
        <ele>126.80000305176</ele>
        <time>2007-05-09T08:07:39Z</time>
      </trkpt>
      <trkpt lat="48.87796" lon="1.28235">
        <ele>127</ele>
        <time>2007-05-09T08:07:46Z</time>
      </trkpt>
      <trkpt lat="48.87788" lon="1.28209">
        <ele>127</ele>
        <time>2007-05-09T08:07:52Z</time>
      </trkpt>
      <trkpt lat="48.87781" lon="1.28199">
        <ele>127</ele>
        <time>2007-05-09T08:07:54Z</time>
      </trkpt>
      <trkpt lat="48.87762" lon="1.28182">
        <ele>126.40000152588</ele>
        <time>2007-05-09T08:08:00Z</time>
      </trkpt>
      <trkpt lat="48.87741" lon="1.28152">
        <ele>126.19999694824</ele>
        <time>2007-05-09T08:08:08Z</time>
      </trkpt>
      <trkpt lat="48.87731" lon="1.28137">
        <ele>126.19999694824</ele>
        <time>2007-05-09T08:08:11Z</time>
      </trkpt>
      <trkpt lat="48.87727" lon="1.28131">
        <ele>126.40000152588</ele>
        <time>2007-05-09T08:08:13Z</time>
      </trkpt>
      <trkpt lat="48.87716" lon="1.28118">
        <ele>126.40000152588</ele>
        <time>2007-05-09T08:08:17Z</time>
      </trkpt>
      <trkpt lat="48.87713" lon="1.28075">
        <ele>126.59999847412</ele>
        <time>2007-05-09T08:08:24Z</time>
      </trkpt>
      <trkpt lat="48.87718" lon="1.28016">
        <ele>127</ele>
        <time>2007-05-09T08:08:35Z</time>
      </trkpt>
      <trkpt lat="48.87723" lon="1.27966">
        <ele>128.60000610352</ele>
        <time>2007-05-09T08:08:44Z</time>
      </trkpt>
      <trkpt lat="48.87723" lon="1.27886">
        <ele>130.19999694824</ele>
        <time>2007-05-09T08:08:58Z</time>
      </trkpt>
      <trkpt lat="48.87732" lon="1.27891">
        <ele>130.19999694824</ele>
        <time>2007-05-09T08:09:01Z</time>
      </trkpt>
      <trkpt lat="48.87735" lon="1.27898">
        <ele>130.39999389648</ele>
        <time>2007-05-09T08:09:02Z</time>
      </trkpt>
      <trkpt lat="48.87757" lon="1.27908">
        <ele>131</ele>
        <time>2007-05-09T08:09:09Z</time>
      </trkpt>
      <trkpt lat="48.87783" lon="1.27907">
        <ele>132.19999694824</ele>
        <time>2007-05-09T08:09:16Z</time>
      </trkpt>
      <trkpt lat="48.8783" lon="1.27897">
        <ele>134.39999389648</ele>
        <time>2007-05-09T08:09:28Z</time>
      </trkpt>
      <trkpt lat="48.87885" lon="1.27893">
        <ele>135.60000610352</ele>
        <time>2007-05-09T08:09:43Z</time>
      </trkpt>
      <trkpt lat="48.87915" lon="1.27889">
        <ele>136.19999694824</ele>
        <time>2007-05-09T08:09:51Z</time>
      </trkpt>
      <trkpt lat="48.8794" lon="1.27887">
        <ele>137</ele>
        <time>2007-05-09T08:09:58Z</time>
      </trkpt>
      <trkpt lat="48.8798" lon="1.2788">
        <ele>138.39999389648</ele>
        <time>2007-05-09T08:10:09Z</time>
      </trkpt>
      <trkpt lat="48.87999" lon="1.27878">
        <ele>139</ele>
        <time>2007-05-09T08:10:14Z</time>
      </trkpt>
      <trkpt lat="48.8802" lon="1.27876">
        <ele>139.19999694824</ele>
        <time>2007-05-09T08:10:20Z</time>
      </trkpt>
      <trkpt lat="48.88044" lon="1.27872">
        <ele>139.19999694824</ele>
        <time>2007-05-09T08:10:26Z</time>
      </trkpt>
      <trkpt lat="48.88072" lon="1.27873">
        <ele>139.39999389648</ele>
        <time>2007-05-09T08:10:34Z</time>
      </trkpt>
      <trkpt lat="48.88098" lon="1.27908">
        <ele>139.80000305176</ele>
        <time>2007-05-09T08:10:43Z</time>
      </trkpt>
      <trkpt lat="48.88135" lon="1.27929">
        <ele>139</ele>
        <time>2007-05-09T08:10:54Z</time>
      </trkpt>
      <trkpt lat="48.88186" lon="1.2792">
        <ele>139</ele>
        <time>2007-05-09T08:11:08Z</time>
      </trkpt>
      <trkpt lat="48.88243" lon="1.27892">
        <ele>139</ele>
        <time>2007-05-09T08:11:24Z</time>
      </trkpt>
      <trkpt lat="48.88255" lon="1.27884">
        <ele>139</ele>
        <time>2007-05-09T08:11:27Z</time>
      </trkpt>
      <trkpt lat="48.88292" lon="1.27851">
        <ele>138.80000305176</ele>
        <time>2007-05-09T08:11:39Z</time>
      </trkpt>
      <trkpt lat="48.88293" lon="1.27835">
        <ele>139</ele>
        <time>2007-05-09T08:11:42Z</time>
      </trkpt>
      <trkpt lat="48.88328" lon="1.27834">
        <ele>139</ele>
        <time>2007-05-09T08:11:51Z</time>
      </trkpt>
      <trkpt lat="48.88369" lon="1.27826">
        <ele>140.19999694824</ele>
        <time>2007-05-09T08:12:03Z</time>
      </trkpt>
      <trkpt lat="48.88405" lon="1.27822">
        <ele>141.60000610352</ele>
        <time>2007-05-09T08:12:12Z</time>
      </trkpt>
      <trkpt lat="48.88446" lon="1.27817">
        <ele>141.80000305176</ele>
        <time>2007-05-09T08:12:23Z</time>
      </trkpt>
      <trkpt lat="48.88465" lon="1.27815">
        <ele>141.60000610352</ele>
        <time>2007-05-09T08:12:28Z</time>
      </trkpt>
      <trkpt lat="48.88489" lon="1.27812">
        <ele>141.39999389648</ele>
        <time>2007-05-09T08:12:35Z</time>
      </trkpt>
      <trkpt lat="48.88516" lon="1.27806">
        <ele>141.39999389648</ele>
        <time>2007-05-09T08:12:42Z</time>
      </trkpt>
      <trkpt lat="48.88552" lon="1.27801">
        <ele>141.80000305176</ele>
        <time>2007-05-09T08:12:52Z</time>
      </trkpt>
      <trkpt lat="48.88612" lon="1.27797">
        <ele>141.80000305176</ele>
        <time>2007-05-09T08:13:08Z</time>
      </trkpt>
      <trkpt lat="48.88656" lon="1.27789">
        <ele>141.60000610352</ele>
        <time>2007-05-09T08:13:20Z</time>
      </trkpt>
      <trkpt lat="48.88691" lon="1.27785">
        <ele>141.80000305176</ele>
        <time>2007-05-09T08:13:30Z</time>
      </trkpt>
      <trkpt lat="48.88691" lon="1.27815">
        <ele>141.39999389648</ele>
        <time>2007-05-09T08:13:35Z</time>
      </trkpt>
      <trkpt lat="48.88698" lon="1.27856">
        <ele>141.39999389648</ele>
        <time>2007-05-09T08:13:43Z</time>
      </trkpt>
      <trkpt lat="48.88708" lon="1.27939">
        <ele>141.60000610352</ele>
        <time>2007-05-09T08:13:58Z</time>
      </trkpt>
      <trkpt lat="48.88712" lon="1.27985">
        <ele>142</ele>
        <time>2007-05-09T08:14:06Z</time>
      </trkpt>
      <trkpt lat="48.88717" lon="1.28026">
        <ele>141.80000305176</ele>
        <time>2007-05-09T08:14:13Z</time>
      </trkpt>
      <trkpt lat="48.88727" lon="1.28093">
        <ele>141.60000610352</ele>
        <time>2007-05-09T08:14:25Z</time>
      </trkpt>
      <trkpt lat="48.88734" lon="1.28139">
        <ele>141.39999389648</ele>
        <time>2007-05-09T08:14:34Z</time>
      </trkpt>
      <trkpt lat="48.88745" lon="1.28192">
        <ele>140.80000305176</ele>
        <time>2007-05-09T08:14:43Z</time>
      </trkpt>
      <trkpt lat="48.88757" lon="1.28255">
        <ele>140.19999694824</ele>
        <time>2007-05-09T08:14:55Z</time>
      </trkpt>
      <trkpt lat="48.88767" lon="1.28314">
        <ele>140.60000610352</ele>
        <time>2007-05-09T08:15:06Z</time>
      </trkpt>
      <trkpt lat="48.88768" lon="1.28386">
        <ele>141</ele>
        <time>2007-05-09T08:15:18Z</time>
      </trkpt>
      <trkpt lat="48.88764" lon="1.28438">
        <ele>140.80000305176</ele>
        <time>2007-05-09T08:15:28Z</time>
      </trkpt>
      <trkpt lat="48.88756" lon="1.28528">
        <ele>140.39999389648</ele>
        <time>2007-05-09T08:15:44Z</time>
      </trkpt>
      <trkpt lat="48.88752" lon="1.28607">
        <ele>141</ele>
        <time>2007-05-09T08:15:58Z</time>
      </trkpt>
      <trkpt lat="48.88752" lon="1.28631">
        <ele>141</ele>
        <time>2007-05-09T08:16:02Z</time>
      </trkpt>
      <trkpt lat="48.88759" lon="1.28707">
        <ele>141</ele>
        <time>2007-05-09T08:16:15Z</time>
      </trkpt>
      <trkpt lat="48.88764" lon="1.28738">
        <ele>141</ele>
        <time>2007-05-09T08:16:21Z</time>
      </trkpt>
      <trkpt lat="48.88768" lon="1.28759">
        <ele>141</ele>
        <time>2007-05-09T08:16:25Z</time>
      </trkpt>
      <trkpt lat="48.88792" lon="1.28851">
        <ele>141.39999389648</ele>
        <time>2007-05-09T08:16:43Z</time>
      </trkpt>
      <trkpt lat="48.88809" lon="1.28912">
        <ele>141.19999694824</ele>
        <time>2007-05-09T08:16:54Z</time>
      </trkpt>
      <trkpt lat="48.88829" lon="1.2897">
        <ele>141</ele>
        <time>2007-05-09T08:17:06Z</time>
      </trkpt>
      <trkpt lat="48.88855" lon="1.29051">
        <ele>141.39999389648</ele>
        <time>2007-05-09T08:17:22Z</time>
      </trkpt>
      <trkpt lat="48.88876" lon="1.29138">
        <ele>141.19999694824</ele>
        <time>2007-05-09T08:17:38Z</time>
      </trkpt>
      <trkpt lat="48.88884" lon="1.29199">
        <ele>140.80000305176</ele>
        <time>2007-05-09T08:17:49Z</time>
      </trkpt>
      <trkpt lat="48.88883" lon="1.29272">
        <ele>140.19999694824</ele>
        <time>2007-05-09T08:18:02Z</time>
      </trkpt>
      <trkpt lat="48.88879" lon="1.29336">
        <ele>139.60000610352</ele>
        <time>2007-05-09T08:18:13Z</time>
      </trkpt>
      <trkpt lat="48.88872" lon="1.29424">
        <ele>138.39999389648</ele>
        <time>2007-05-09T08:18:29Z</time>
      </trkpt>
      <trkpt lat="48.88867" lon="1.29467">
        <ele>138.19999694824</ele>
        <time>2007-05-09T08:18:36Z</time>
      </trkpt>
      <trkpt lat="48.88883" lon="1.2949">
        <ele>138</ele>
        <time>2007-05-09T08:18:43Z</time>
      </trkpt>
      <trkpt lat="48.88931" lon="1.29501">
        <ele>138.39999389648</ele>
        <time>2007-05-09T08:18:56Z</time>
      </trkpt>
      <trkpt lat="48.8898" lon="1.29504">
        <ele>139.60000610352</ele>
        <time>2007-05-09T08:19:09Z</time>
      </trkpt>
      <trkpt lat="48.8903" lon="1.29498">
        <ele>139.60000610352</ele>
        <time>2007-05-09T08:19:23Z</time>
      </trkpt>
      <trkpt lat="48.89048" lon="1.29486">
        <ele>139.39999389648</ele>
        <time>2007-05-09T08:19:28Z</time>
      </trkpt>
      <trkpt lat="48.89071" lon="1.29471">
        <ele>139.19999694824</ele>
        <time>2007-05-09T08:19:35Z</time>
      </trkpt>
      <trkpt lat="48.89103" lon="1.29441">
        <ele>138.80000305176</ele>
        <time>2007-05-09T08:19:45Z</time>
      </trkpt>
      <trkpt lat="48.89149" lon="1.29396">
        <ele>138.39999389648</ele>
        <time>2007-05-09T08:19:59Z</time>
      </trkpt>
      <trkpt lat="48.89207" lon="1.29338">
        <ele>137.60000610352</ele>
        <time>2007-05-09T08:20:18Z</time>
      </trkpt>
      <trkpt lat="48.89231" lon="1.29314">
        <ele>136.80000305176</ele>
        <time>2007-05-09T08:20:26Z</time>
      </trkpt>
      <trkpt lat="48.89247" lon="1.29301">
        <ele>136.19999694824</ele>
        <time>2007-05-09T08:20:30Z</time>
      </trkpt>
      <trkpt lat="48.89277" lon="1.29284">
        <ele>136.39999389648</ele>
        <time>2007-05-09T08:20:39Z</time>
      </trkpt>
      <trkpt lat="48.89286" lon="1.293">
        <ele>136.39999389648</ele>
        <time>2007-05-09T08:20:43Z</time>
      </trkpt>
      <trkpt lat="48.89299" lon="1.2935">
        <ele>135.80000305176</ele>
        <time>2007-05-09T08:20:52Z</time>
      </trkpt>
      <trkpt lat="48.89308" lon="1.29393">
        <ele>135.60000610352</ele>
        <time>2007-05-09T08:21:00Z</time>
      </trkpt>
      <trkpt lat="48.89313" lon="1.29415">
        <ele>135.19999694824</ele>
        <time>2007-05-09T08:21:05Z</time>
      </trkpt>
      <trkpt lat="48.89331" lon="1.29476">
        <ele>135</ele>
        <time>2007-05-09T08:21:16Z</time>
      </trkpt>
      <trkpt lat="48.89345" lon="1.29547">
        <ele>135.19999694824</ele>
        <time>2007-05-09T08:21:30Z</time>
      </trkpt>
      <trkpt lat="48.89361" lon="1.29578">
        <ele>135.39999389648</ele>
        <time>2007-05-09T08:21:36Z</time>
      </trkpt>
      <trkpt lat="48.89372" lon="1.29613">
        <ele>135</ele>
        <time>2007-05-09T08:21:43Z</time>
      </trkpt>
      <trkpt lat="48.89371" lon="1.29637">
        <ele>134.60000610352</ele>
        <time>2007-05-09T08:21:48Z</time>
      </trkpt>
      <trkpt lat="48.89371" lon="1.29682">
        <ele>133.60000610352</ele>
        <time>2007-05-09T08:21:56Z</time>
      </trkpt>
      <trkpt lat="48.89373" lon="1.29738">
        <ele>132.19999694824</ele>
        <time>2007-05-09T08:22:06Z</time>
      </trkpt>
      <trkpt lat="48.89361" lon="1.29846">
        <ele>129.19999694824</ele>
        <time>2007-05-09T08:22:25Z</time>
      </trkpt>
      <trkpt lat="48.89349" lon="1.29903">
        <ele>128.39999389648</ele>
        <time>2007-05-09T08:22:36Z</time>
      </trkpt>
      <trkpt lat="48.89333" lon="1.2996">
        <ele>130.19999694824</ele>
        <time>2007-05-09T08:22:46Z</time>
      </trkpt>
      <trkpt lat="48.89327" lon="1.29999">
        <ele>131.60000610352</ele>
        <time>2007-05-09T08:22:54Z</time>
      </trkpt>
      <trkpt lat="48.89335" lon="1.29989">
        <ele>131.60000610352</ele>
        <time>2007-05-09T08:22:57Z</time>
      </trkpt>
      <trkpt lat="48.8934" lon="1.29975">
        <ele>131.19999694824</ele>
        <time>2007-05-09T08:23:00Z</time>
      </trkpt>
      <trkpt lat="48.89345" lon="1.29968">
        <ele>131</ele>
        <time>2007-05-09T08:23:02Z</time>
      </trkpt>
      <trkpt lat="48.89356" lon="1.2997">
        <ele>131.60000610352</ele>
        <time>2007-05-09T08:23:05Z</time>
      </trkpt>
      <trkpt lat="48.89362" lon="1.29978">
        <ele>132.19999694824</ele>
        <time>2007-05-09T08:23:08Z</time>
      </trkpt>
      <trkpt lat="48.8936" lon="1.29988">
        <ele>132.80000305176</ele>
        <time>2007-05-09T08:23:10Z</time>
      </trkpt>
      <trkpt lat="48.89371" lon="1.30013">
        <ele>134.80000305176</ele>
        <time>2007-05-09T08:23:16Z</time>
      </trkpt>
      <trkpt lat="48.89385" lon="1.30017">
        <ele>136</ele>
        <time>2007-05-09T08:23:20Z</time>
      </trkpt>
      <trkpt lat="48.8939" lon="1.30003">
        <ele>135.60000610352</ele>
        <time>2007-05-09T08:23:23Z</time>
      </trkpt>
      <trkpt lat="48.89393" lon="1.29983">
        <ele>134.19999694824</ele>
        <time>2007-05-09T08:23:27Z</time>
      </trkpt>
      <trkpt lat="48.89398" lon="1.29972">
        <ele>133.60000610352</ele>
        <time>2007-05-09T08:23:29Z</time>
      </trkpt>
      <trkpt lat="48.89412" lon="1.29975">
        <ele>134.39999389648</ele>
        <time>2007-05-09T08:23:33Z</time>
      </trkpt>
      <trkpt lat="48.89429" lon="1.29983">
        <ele>135.60000610352</ele>
        <time>2007-05-09T08:23:38Z</time>
      </trkpt>
      <trkpt lat="48.89443" lon="1.29991">
        <ele>136.60000610352</ele>
        <time>2007-05-09T08:23:42Z</time>
      </trkpt>
      <trkpt lat="48.89451" lon="1.29998">
        <ele>137.19999694824</ele>
        <time>2007-05-09T08:23:44Z</time>
      </trkpt>
      <trkpt lat="48.89459" lon="1.30002">
        <ele>137.60000610352</ele>
        <time>2007-05-09T08:23:47Z</time>
      </trkpt>
      <trkpt lat="48.89472" lon="1.30003">
        <ele>138</ele>
        <time>2007-05-09T08:23:50Z</time>
      </trkpt>
      <trkpt lat="48.89494" lon="1.3">
        <ele>138</ele>
        <time>2007-05-09T08:23:56Z</time>
      </trkpt>
      <trkpt lat="48.89511" lon="1.29998">
        <ele>138.60000610352</ele>
        <time>2007-05-09T08:24:01Z</time>
      </trkpt>
      <trkpt lat="48.89529" lon="1.29988">
        <ele>138.80000305176</ele>
        <time>2007-05-09T08:24:06Z</time>
      </trkpt>
      <trkpt lat="48.89547" lon="1.29969">
        <ele>138.19999694824</ele>
        <time>2007-05-09T08:24:12Z</time>
      </trkpt>
      <trkpt lat="48.89561" lon="1.29956">
        <ele>137.80000305176</ele>
        <time>2007-05-09T08:24:17Z</time>
      </trkpt>
      <trkpt lat="48.89569" lon="1.29947">
        <ele>137.39999389648</ele>
        <time>2007-05-09T08:24:20Z</time>
      </trkpt>
      <trkpt lat="48.89578" lon="1.29932">
        <ele>136.39999389648</ele>
        <time>2007-05-09T08:24:23Z</time>
      </trkpt>
      <trkpt lat="48.89595" lon="1.29911">
        <ele>136.19999694824</ele>
        <time>2007-05-09T08:24:29Z</time>
      </trkpt>
      <trkpt lat="48.89602" lon="1.29894">
        <ele>136.19999694824</ele>
        <time>2007-05-09T08:24:33Z</time>
      </trkpt>
      <trkpt lat="48.89606" lon="1.29874">
        <ele>136</ele>
        <time>2007-05-09T08:24:37Z</time>
      </trkpt>
      <trkpt lat="48.89614" lon="1.29852">
        <ele>135.80000305176</ele>
        <time>2007-05-09T08:24:41Z</time>
      </trkpt>
      <trkpt lat="48.89626" lon="1.29818">
        <ele>135.60000610352</ele>
        <time>2007-05-09T08:24:48Z</time>
      </trkpt>
      <trkpt lat="48.89657" lon="1.29774">
        <ele>135.39999389648</ele>
        <time>2007-05-09T08:24:59Z</time>
      </trkpt>
      <trkpt lat="48.89674" lon="1.29748">
        <ele>134.60000610352</ele>
        <time>2007-05-09T08:25:06Z</time>
      </trkpt>
      <trkpt lat="48.89684" lon="1.29739">
        <ele>135.39999389648</ele>
        <time>2007-05-09T08:25:09Z</time>
      </trkpt>
      <trkpt lat="48.89706" lon="1.29716">
        <ele>136.39999389648</ele>
        <time>2007-05-09T08:25:16Z</time>
      </trkpt>
      <trkpt lat="48.89721" lon="1.29706">
        <ele>137.19999694824</ele>
        <time>2007-05-09T08:25:20Z</time>
      </trkpt>
      <trkpt lat="48.89725" lon="1.29695">
        <ele>136.80000305176</ele>
        <time>2007-05-09T08:25:23Z</time>
      </trkpt>
      <trkpt lat="48.89742" lon="1.29666">
        <ele>136.60000610352</ele>
        <time>2007-05-09T08:25:30Z</time>
      </trkpt>
      <trkpt lat="48.89753" lon="1.29635">
        <ele>136.19999694824</ele>
        <time>2007-05-09T08:25:36Z</time>
      </trkpt>
      <trkpt lat="48.89761" lon="1.29595">
        <ele>135.60000610352</ele>
        <time>2007-05-09T08:25:44Z</time>
      </trkpt>
      <trkpt lat="48.89768" lon="1.29579">
        <ele>136</ele>
        <time>2007-05-09T08:25:47Z</time>
      </trkpt>
      <trkpt lat="48.89773" lon="1.29567">
        <ele>137</ele>
        <time>2007-05-09T08:25:50Z</time>
      </trkpt>
      <trkpt lat="48.89787" lon="1.29556">
        <ele>138.80000305176</ele>
        <time>2007-05-09T08:25:54Z</time>
      </trkpt>
      <trkpt lat="48.89803" lon="1.29518">
        <ele>141.19999694824</ele>
        <time>2007-05-09T08:26:02Z</time>
      </trkpt>
      <trkpt lat="48.89799" lon="1.29479">
        <ele>140.80000305176</ele>
        <time>2007-05-09T08:26:09Z</time>
      </trkpt>
      <trkpt lat="48.89794" lon="1.29442">
        <ele>140</ele>
        <time>2007-05-09T08:26:16Z</time>
      </trkpt>
      <trkpt lat="48.89796" lon="1.29407">
        <ele>139.80000305176</ele>
        <time>2007-05-09T08:26:22Z</time>
      </trkpt>
      <trkpt lat="48.89797" lon="1.2938">
        <ele>139.60000610352</ele>
        <time>2007-05-09T08:26:27Z</time>
      </trkpt>
      <trkpt lat="48.8981" lon="1.29348">
        <ele>140.19999694824</ele>
        <time>2007-05-09T08:26:34Z</time>
      </trkpt>
      <trkpt lat="48.89816" lon="1.29315">
        <ele>140</ele>
        <time>2007-05-09T08:26:40Z</time>
      </trkpt>
      <trkpt lat="48.89833" lon="1.29279">
        <ele>140</ele>
        <time>2007-05-09T08:26:48Z</time>
      </trkpt>
      <trkpt lat="48.89862" lon="1.29276">
        <ele>141.60000610352</ele>
        <time>2007-05-09T08:26:55Z</time>
      </trkpt>
      <trkpt lat="48.89877" lon="1.29269">
        <ele>142.19999694824</ele>
        <time>2007-05-09T08:27:00Z</time>
      </trkpt>
      <trkpt lat="48.89886" lon="1.29256">
        <ele>142.39999389648</ele>
        <time>2007-05-09T08:27:03Z</time>
      </trkpt>
      <trkpt lat="48.89894" lon="1.29232">
        <ele>141.39999389648</ele>
        <time>2007-05-09T08:27:08Z</time>
      </trkpt>
      <trkpt lat="48.89917" lon="1.29201">
        <ele>140.39999389648</ele>
        <time>2007-05-09T08:27:16Z</time>
      </trkpt>
      <trkpt lat="48.8993" lon="1.29187">
        <ele>139</ele>
        <time>2007-05-09T08:27:21Z</time>
      </trkpt>
      <trkpt lat="48.89956" lon="1.29205">
        <ele>139.60000610352</ele>
        <time>2007-05-09T08:27:29Z</time>
      </trkpt>
      <trkpt lat="48.89979" lon="1.29221">
        <ele>140</ele>
        <time>2007-05-09T08:27:35Z</time>
      </trkpt>
      <trkpt lat="48.9001" lon="1.29247">
        <ele>140.39999389648</ele>
        <time>2007-05-09T08:27:45Z</time>
      </trkpt>
      <trkpt lat="48.90047" lon="1.29266">
        <ele>140.60000610352</ele>
        <time>2007-05-09T08:27:55Z</time>
      </trkpt>
      <trkpt lat="48.90078" lon="1.29275">
        <ele>140.19999694824</ele>
        <time>2007-05-09T08:28:04Z</time>
      </trkpt>
      <trkpt lat="48.90112" lon="1.2928">
        <ele>141.19999694824</ele>
        <time>2007-05-09T08:28:13Z</time>
      </trkpt>
      <trkpt lat="48.90133" lon="1.29268">
        <ele>140.80000305176</ele>
        <time>2007-05-09T08:28:19Z</time>
      </trkpt>
      <trkpt lat="48.90174" lon="1.29241">
        <ele>139.80000305176</ele>
        <time>2007-05-09T08:28:31Z</time>
      </trkpt>
      <trkpt lat="48.90191" lon="1.29208">
        <ele>138.39999389648</ele>
        <time>2007-05-09T08:28:39Z</time>
      </trkpt>
      <trkpt lat="48.90214" lon="1.29149">
        <ele>136.80000305176</ele>
        <time>2007-05-09T08:28:51Z</time>
      </trkpt>
      <trkpt lat="48.90239" lon="1.29088">
        <ele>137.19999694824</ele>
        <time>2007-05-09T08:29:03Z</time>
      </trkpt>
      <trkpt lat="48.90267" lon="1.29017">
        <ele>137.80000305176</ele>
        <time>2007-05-09T08:29:18Z</time>
      </trkpt>
      <trkpt lat="48.90299" lon="1.28932">
        <ele>139.19999694824</ele>
        <time>2007-05-09T08:29:35Z</time>
      </trkpt>
      <trkpt lat="48.90325" lon="1.28862">
        <ele>139.60000610352</ele>
        <time>2007-05-09T08:29:49Z</time>
      </trkpt>
      <trkpt lat="48.90338" lon="1.28825">
        <ele>140</ele>
        <time>2007-05-09T08:29:57Z</time>
      </trkpt>
      <trkpt lat="48.90356" lon="1.2878">
        <ele>140</ele>
        <time>2007-05-09T08:30:06Z</time>
      </trkpt>
      <trkpt lat="48.90365" lon="1.28758">
        <ele>140</ele>
        <time>2007-05-09T08:30:10Z</time>
      </trkpt>
      <trkpt lat="48.90384" lon="1.28704">
        <ele>140.19999694824</ele>
        <time>2007-05-09T08:30:21Z</time>
      </trkpt>
      <trkpt lat="48.90412" lon="1.28622">
        <ele>140.60000610352</ele>
        <time>2007-05-09T08:30:37Z</time>
      </trkpt>
      <trkpt lat="48.90424" lon="1.28586">
        <ele>140.80000305176</ele>
        <time>2007-05-09T08:30:45Z</time>
      </trkpt>
      <trkpt lat="48.90444" lon="1.28524">
        <ele>141.39999389648</ele>
        <time>2007-05-09T08:30:57Z</time>
      </trkpt>
      <trkpt lat="48.90475" lon="1.2844">
        <ele>141</ele>
        <time>2007-05-09T08:31:14Z</time>
      </trkpt>
      <trkpt lat="48.90504" lon="1.28363">
        <ele>140.60000610352</ele>
        <time>2007-05-09T08:31:29Z</time>
      </trkpt>
      <trkpt lat="48.90537" lon="1.2829">
        <ele>140.80000305176</ele>
        <time>2007-05-09T08:31:45Z</time>
      </trkpt>
      <trkpt lat="48.90561" lon="1.28243">
        <ele>140.80000305176</ele>
        <time>2007-05-09T08:31:56Z</time>
      </trkpt>
      <trkpt lat="48.90568" lon="1.28281">
        <ele>140.80000305176</ele>
        <time>2007-05-09T08:32:03Z</time>
      </trkpt>
      <trkpt lat="48.9058" lon="1.28316">
        <ele>141</ele>
        <time>2007-05-09T08:32:10Z</time>
      </trkpt>
      <trkpt lat="48.90619" lon="1.28354">
        <ele>141.60000610352</ele>
        <time>2007-05-09T08:32:24Z</time>
      </trkpt>
      <trkpt lat="48.90628" lon="1.28402">
        <ele>141.19999694824</ele>
        <time>2007-05-09T08:32:33Z</time>
      </trkpt>
      <trkpt lat="48.90645" lon="1.28457">
        <ele>141</ele>
        <time>2007-05-09T08:32:44Z</time>
      </trkpt>
      <trkpt lat="48.90678" lon="1.28434">
        <ele>142</ele>
        <time>2007-05-09T08:32:54Z</time>
      </trkpt>
      <trkpt lat="48.90696" lon="1.28418">
        <ele>142.39999389648</ele>
        <time>2007-05-09T08:33:00Z</time>
      </trkpt>
      <trkpt lat="48.90723" lon="1.28398">
        <ele>142.80000305176</ele>
        <time>2007-05-09T08:33:08Z</time>
      </trkpt>
      <trkpt lat="48.90724" lon="1.28378">
        <ele>143.19999694824</ele>
        <time>2007-05-09T08:33:11Z</time>
      </trkpt>
      <trkpt lat="48.90734" lon="1.28371">
        <ele>143.39999389648</ele>
        <time>2007-05-09T08:33:14Z</time>
      </trkpt>
      <trkpt lat="48.9078" lon="1.28354">
        <ele>143.80000305176</ele>
        <time>2007-05-09T08:33:27Z</time>
      </trkpt>
      <trkpt lat="48.90804" lon="1.28301">
        <ele>144</ele>
        <time>2007-05-09T08:33:39Z</time>
      </trkpt>
      <trkpt lat="48.90794" lon="1.28233">
        <ele>144.19999694824</ele>
        <time>2007-05-09T08:33:51Z</time>
      </trkpt>
    </trkseg>
  </trk>
</gpx>